<?xml version="1.0" encoding="UTF-8" standalone="no" ?>
<gpx xmlns="http://www.topografix.com/GPX/1/1" creator="CompeGPS" version="1.1" xmlns:xsi="http://www.w3.org/2001/XMLSchema-instance" xsi:schemaLocation="http://www.topografix.com/GPX/1/1 http://www.topografix.com/GPX/1/1/gpx.xsd">
  <metadata>
    <link href="http://www.compegps.com">
      <text>CompeGPS TEAM, SL</text>
    </link>
    <time>2022-12-18T17:36:37Z</time>
    <bounds maxlat="36.864514" maxlon="-3.655148" minlat="36.826955" minlon="-3.681190"/>
  </metadata>
  <trk>
    <name>Alto del Rayo</name>
    <trkseg>
      <trkpt lat="36.834861" lon="-3.673435">
        <ele>686.5</ele>
        <time>2022-12-18T08:05:42Z</time>
      </trkpt>
      <trkpt lat="36.834900" lon="-3.673482">
        <ele>686.5</ele>
        <time>2022-12-18T08:07:55Z</time>
      </trkpt>
      <trkpt lat="36.835036" lon="-3.673326">
        <ele>688.0</ele>
        <time>2022-12-18T08:08:56Z</time>
      </trkpt>
      <trkpt lat="36.835218" lon="-3.673167">
        <ele>688.9</ele>
        <time>2022-12-18T08:11:09Z</time>
      </trkpt>
      <trkpt lat="36.835351" lon="-3.672999">
        <ele>690.8</ele>
        <time>2022-12-18T08:11:45Z</time>
      </trkpt>
      <trkpt lat="36.835534" lon="-3.672892">
        <ele>693.2</ele>
        <time>2022-12-18T08:12:05Z</time>
      </trkpt>
      <trkpt lat="36.835717" lon="-3.672805">
        <ele>695.7</ele>
        <time>2022-12-18T08:12:25Z</time>
      </trkpt>
      <trkpt lat="36.835897" lon="-3.672805">
        <ele>694.7</ele>
        <time>2022-12-18T08:12:52Z</time>
      </trkpt>
      <trkpt lat="36.836076" lon="-3.672744">
        <ele>692.8</ele>
        <time>2022-12-18T08:13:12Z</time>
      </trkpt>
      <trkpt lat="36.836302" lon="-3.672713">
        <ele>689.9</ele>
        <time>2022-12-18T08:13:32Z</time>
      </trkpt>
      <trkpt lat="36.836539" lon="-3.672654">
        <ele>688.0</ele>
        <time>2022-12-18T08:13:54Z</time>
      </trkpt>
      <trkpt lat="36.836742" lon="-3.672638">
        <ele>686.5</ele>
        <time>2022-12-18T08:14:12Z</time>
      </trkpt>
      <trkpt lat="36.836984" lon="-3.672707">
        <ele>688.9</ele>
        <time>2022-12-18T08:14:35Z</time>
      </trkpt>
      <trkpt lat="36.837231" lon="-3.672689">
        <ele>689.4</ele>
        <time>2022-12-18T08:14:56Z</time>
      </trkpt>
      <trkpt lat="36.837482" lon="-3.672655">
        <ele>690.8</ele>
        <time>2022-12-18T08:15:18Z</time>
      </trkpt>
      <trkpt lat="36.837576" lon="-3.672693">
        <ele>690.8</ele>
        <time>2022-12-18T08:16:31Z</time>
      </trkpt>
      <trkpt lat="36.837827" lon="-3.672641">
        <ele>693.2</ele>
        <time>2022-12-18T08:16:55Z</time>
      </trkpt>
      <trkpt lat="36.838004" lon="-3.672544">
        <ele>694.2</ele>
        <time>2022-12-18T08:17:34Z</time>
      </trkpt>
      <trkpt lat="36.838058" lon="-3.672527">
        <ele>694.2</ele>
        <time>2022-12-18T08:20:29Z</time>
      </trkpt>
      <trkpt lat="36.838057" lon="-3.672485">
        <ele>693.7</ele>
        <time>2022-12-18T08:24:08Z</time>
      </trkpt>
      <trkpt lat="36.838241" lon="-3.672272">
        <ele>694.7</ele>
        <time>2022-12-18T08:24:37Z</time>
      </trkpt>
      <trkpt lat="36.838455" lon="-3.672180">
        <ele>696.6</ele>
        <time>2022-12-18T08:24:59Z</time>
      </trkpt>
      <trkpt lat="36.838678" lon="-3.672135">
        <ele>696.1</ele>
        <time>2022-12-18T08:25:19Z</time>
      </trkpt>
      <trkpt lat="36.838910" lon="-3.672025">
        <ele>695.2</ele>
        <time>2022-12-18T08:25:42Z</time>
      </trkpt>
      <trkpt lat="36.839146" lon="-3.671941">
        <ele>693.2</ele>
        <time>2022-12-18T08:26:03Z</time>
      </trkpt>
      <trkpt lat="36.839342" lon="-3.671817">
        <ele>694.7</ele>
        <time>2022-12-18T08:26:24Z</time>
      </trkpt>
      <trkpt lat="36.839578" lon="-3.671729">
        <ele>694.7</ele>
        <time>2022-12-18T08:26:44Z</time>
      </trkpt>
      <trkpt lat="36.839825" lon="-3.671599">
        <ele>693.7</ele>
        <time>2022-12-18T08:27:07Z</time>
      </trkpt>
      <trkpt lat="36.840099" lon="-3.671484">
        <ele>692.3</ele>
        <time>2022-12-18T08:27:33Z</time>
      </trkpt>
      <trkpt lat="36.840184" lon="-3.671739">
        <ele>695.2</ele>
        <time>2022-12-18T08:27:53Z</time>
      </trkpt>
      <trkpt lat="36.840072" lon="-3.671955">
        <ele>696.6</ele>
        <time>2022-12-18T08:28:14Z</time>
      </trkpt>
      <trkpt lat="36.839956" lon="-3.672138">
        <ele>697.6</ele>
        <time>2022-12-18T08:28:29Z</time>
      </trkpt>
      <trkpt lat="36.839922" lon="-3.672356">
        <ele>700.9</ele>
        <time>2022-12-18T08:28:47Z</time>
      </trkpt>
      <trkpt lat="36.840088" lon="-3.672250">
        <ele>702.9</ele>
        <time>2022-12-18T08:29:07Z</time>
      </trkpt>
      <trkpt lat="36.840185" lon="-3.672042">
        <ele>705.7</ele>
        <time>2022-12-18T08:29:26Z</time>
      </trkpt>
      <trkpt lat="36.840298" lon="-3.671846">
        <ele>708.1</ele>
        <time>2022-12-18T08:29:43Z</time>
      </trkpt>
      <trkpt lat="36.840418" lon="-3.671683">
        <ele>709.1</ele>
        <time>2022-12-18T08:29:59Z</time>
      </trkpt>
      <trkpt lat="36.840535" lon="-3.671513">
        <ele>712.5</ele>
        <time>2022-12-18T08:30:38Z</time>
      </trkpt>
      <trkpt lat="36.840606" lon="-3.671500">
        <ele>713.0</ele>
        <time>2022-12-18T08:31:03Z</time>
      </trkpt>
      <trkpt lat="36.840528" lon="-3.671714">
        <ele>716.3</ele>
        <time>2022-12-18T08:31:18Z</time>
      </trkpt>
      <trkpt lat="36.840458" lon="-3.671947">
        <ele>718.2</ele>
        <time>2022-12-18T08:31:34Z</time>
      </trkpt>
      <trkpt lat="36.840412" lon="-3.672190">
        <ele>721.1</ele>
        <time>2022-12-18T08:31:51Z</time>
      </trkpt>
      <trkpt lat="36.840469" lon="-3.672431">
        <ele>724.0</ele>
        <time>2022-12-18T08:32:08Z</time>
      </trkpt>
      <trkpt lat="36.840539" lon="-3.672652">
        <ele>725.0</ele>
        <time>2022-12-18T08:32:24Z</time>
      </trkpt>
      <trkpt lat="36.840422" lon="-3.672825">
        <ele>726.4</ele>
        <time>2022-12-18T08:32:39Z</time>
      </trkpt>
      <trkpt lat="36.840324" lon="-3.672974">
        <ele>728.3</ele>
        <time>2022-12-18T08:33:13Z</time>
      </trkpt>
      <trkpt lat="36.840444" lon="-3.673205">
        <ele>730.7</ele>
        <time>2022-12-18T08:33:34Z</time>
      </trkpt>
      <trkpt lat="36.840549" lon="-3.673444">
        <ele>733.6</ele>
        <time>2022-12-18T08:33:52Z</time>
      </trkpt>
      <trkpt lat="36.840586" lon="-3.673691">
        <ele>736.0</ele>
        <time>2022-12-18T08:34:09Z</time>
      </trkpt>
      <trkpt lat="36.840466" lon="-3.673856">
        <ele>737.5</ele>
        <time>2022-12-18T08:34:26Z</time>
      </trkpt>
      <trkpt lat="36.840374" lon="-3.674052">
        <ele>740.8</ele>
        <time>2022-12-18T08:34:44Z</time>
      </trkpt>
      <trkpt lat="36.840368" lon="-3.674225">
        <ele>741.8</ele>
        <time>2022-12-18T08:35:59Z</time>
      </trkpt>
      <trkpt lat="36.840409" lon="-3.674450">
        <ele>743.7</ele>
        <time>2022-12-18T08:36:16Z</time>
      </trkpt>
      <trkpt lat="36.840495" lon="-3.674683">
        <ele>744.2</ele>
        <time>2022-12-18T08:36:32Z</time>
      </trkpt>
      <trkpt lat="36.840522" lon="-3.674923">
        <ele>744.7</ele>
        <time>2022-12-18T08:36:47Z</time>
      </trkpt>
      <trkpt lat="36.840570" lon="-3.675165">
        <ele>745.6</ele>
        <time>2022-12-18T08:37:02Z</time>
      </trkpt>
      <trkpt lat="36.840551" lon="-3.675412">
        <ele>747.1</ele>
        <time>2022-12-18T08:37:18Z</time>
      </trkpt>
      <trkpt lat="36.840502" lon="-3.675632">
        <ele>748.0</ele>
        <time>2022-12-18T08:37:33Z</time>
      </trkpt>
      <trkpt lat="36.840436" lon="-3.675863">
        <ele>749.0</ele>
        <time>2022-12-18T08:37:49Z</time>
      </trkpt>
      <trkpt lat="36.840386" lon="-3.676093">
        <ele>751.9</ele>
        <time>2022-12-18T08:38:07Z</time>
      </trkpt>
      <trkpt lat="36.840431" lon="-3.676335">
        <ele>754.8</ele>
        <time>2022-12-18T08:38:25Z</time>
      </trkpt>
      <trkpt lat="36.840523" lon="-3.676562">
        <ele>757.7</ele>
        <time>2022-12-18T08:38:43Z</time>
      </trkpt>
      <trkpt lat="36.840663" lon="-3.676738">
        <ele>762.0</ele>
        <time>2022-12-18T08:39:01Z</time>
      </trkpt>
      <trkpt lat="36.840784" lon="-3.676931">
        <ele>762.9</ele>
        <time>2022-12-18T08:39:18Z</time>
      </trkpt>
      <trkpt lat="36.840821" lon="-3.677158">
        <ele>765.3</ele>
        <time>2022-12-18T08:39:37Z</time>
      </trkpt>
      <trkpt lat="36.840753" lon="-3.677262">
        <ele>764.4</ele>
        <time>2022-12-18T08:40:36Z</time>
      </trkpt>
      <trkpt lat="36.840820" lon="-3.677172">
        <ele>765.8</ele>
        <time>2022-12-18T08:42:54Z</time>
      </trkpt>
      <trkpt lat="36.840922" lon="-3.677314">
        <ele>768.2</ele>
        <time>2022-12-18T08:43:19Z</time>
      </trkpt>
      <trkpt lat="36.841062" lon="-3.677495">
        <ele>768.7</ele>
        <time>2022-12-18T08:43:38Z</time>
      </trkpt>
      <trkpt lat="36.841238" lon="-3.677625">
        <ele>769.2</ele>
        <time>2022-12-18T08:43:54Z</time>
      </trkpt>
      <trkpt lat="36.841413" lon="-3.677775">
        <ele>770.6</ele>
        <time>2022-12-18T08:44:09Z</time>
      </trkpt>
      <trkpt lat="36.841537" lon="-3.677975">
        <ele>770.6</ele>
        <time>2022-12-18T08:44:24Z</time>
      </trkpt>
      <trkpt lat="36.841708" lon="-3.678108">
        <ele>769.2</ele>
        <time>2022-12-18T08:44:39Z</time>
      </trkpt>
      <trkpt lat="36.841891" lon="-3.678201">
        <ele>768.7</ele>
        <time>2022-12-18T08:44:55Z</time>
      </trkpt>
      <trkpt lat="36.842088" lon="-3.678288">
        <ele>768.7</ele>
        <time>2022-12-18T08:45:12Z</time>
      </trkpt>
      <trkpt lat="36.842296" lon="-3.678378">
        <ele>769.7</ele>
        <time>2022-12-18T08:45:28Z</time>
      </trkpt>
      <trkpt lat="36.842433" lon="-3.678565">
        <ele>766.3</ele>
        <time>2022-12-18T08:45:44Z</time>
      </trkpt>
      <trkpt lat="36.842521" lon="-3.678761">
        <ele>767.8</ele>
        <time>2022-12-18T08:45:59Z</time>
      </trkpt>
      <trkpt lat="36.842504" lon="-3.679003">
        <ele>767.3</ele>
        <time>2022-12-18T08:46:14Z</time>
      </trkpt>
      <trkpt lat="36.842446" lon="-3.679232">
        <ele>766.8</ele>
        <time>2022-12-18T08:46:28Z</time>
      </trkpt>
      <trkpt lat="36.842469" lon="-3.679458">
        <ele>765.3</ele>
        <time>2022-12-18T08:46:42Z</time>
      </trkpt>
      <trkpt lat="36.842626" lon="-3.679581">
        <ele>764.9</ele>
        <time>2022-12-18T08:46:56Z</time>
      </trkpt>
      <trkpt lat="36.842819" lon="-3.679590">
        <ele>764.4</ele>
        <time>2022-12-18T08:47:11Z</time>
      </trkpt>
      <trkpt lat="36.842961" lon="-3.679751">
        <ele>764.4</ele>
        <time>2022-12-18T08:47:27Z</time>
      </trkpt>
      <trkpt lat="36.843066" lon="-3.679972">
        <ele>764.9</ele>
        <time>2022-12-18T08:47:45Z</time>
      </trkpt>
      <trkpt lat="36.843249" lon="-3.680075">
        <ele>763.4</ele>
        <time>2022-12-18T08:48:23Z</time>
      </trkpt>
      <trkpt lat="36.843435" lon="-3.680123">
        <ele>762.0</ele>
        <time>2022-12-18T08:48:49Z</time>
      </trkpt>
      <trkpt lat="36.843601" lon="-3.680259">
        <ele>762.0</ele>
        <time>2022-12-18T08:49:05Z</time>
      </trkpt>
      <trkpt lat="36.843787" lon="-3.680312">
        <ele>761.5</ele>
        <time>2022-12-18T08:49:20Z</time>
      </trkpt>
      <trkpt lat="36.843980" lon="-3.680307">
        <ele>760.5</ele>
        <time>2022-12-18T08:49:35Z</time>
      </trkpt>
      <trkpt lat="36.844094" lon="-3.680487">
        <ele>760.5</ele>
        <time>2022-12-18T08:49:51Z</time>
      </trkpt>
      <trkpt lat="36.844154" lon="-3.680709">
        <ele>761.5</ele>
        <time>2022-12-18T08:50:14Z</time>
      </trkpt>
      <trkpt lat="36.844242" lon="-3.680924">
        <ele>762.5</ele>
        <time>2022-12-18T08:50:29Z</time>
      </trkpt>
      <trkpt lat="36.844394" lon="-3.681104">
        <ele>764.9</ele>
        <time>2022-12-18T08:50:45Z</time>
      </trkpt>
      <trkpt lat="36.844555" lon="-3.681190">
        <ele>765.8</ele>
        <time>2022-12-18T08:51:11Z</time>
      </trkpt>
      <trkpt lat="36.844625" lon="-3.681142">
        <ele>767.3</ele>
        <time>2022-12-18T08:53:21Z</time>
      </trkpt>
      <trkpt lat="36.844808" lon="-3.681027">
        <ele>767.8</ele>
        <time>2022-12-18T08:53:37Z</time>
      </trkpt>
      <trkpt lat="36.844956" lon="-3.680885">
        <ele>769.7</ele>
        <time>2022-12-18T08:53:50Z</time>
      </trkpt>
      <trkpt lat="36.845141" lon="-3.680816">
        <ele>770.2</ele>
        <time>2022-12-18T08:54:04Z</time>
      </trkpt>
      <trkpt lat="36.845339" lon="-3.680780">
        <ele>773.0</ele>
        <time>2022-12-18T08:54:19Z</time>
      </trkpt>
      <trkpt lat="36.845520" lon="-3.680691">
        <ele>775.9</ele>
        <time>2022-12-18T08:54:34Z</time>
      </trkpt>
      <trkpt lat="36.845673" lon="-3.680550">
        <ele>777.8</ele>
        <time>2022-12-18T08:54:49Z</time>
      </trkpt>
      <trkpt lat="36.845840" lon="-3.680434">
        <ele>777.4</ele>
        <time>2022-12-18T08:55:04Z</time>
      </trkpt>
      <trkpt lat="36.845984" lon="-3.680266">
        <ele>783.6</ele>
        <time>2022-12-18T08:55:22Z</time>
      </trkpt>
      <trkpt lat="36.846158" lon="-3.680163">
        <ele>785.5</ele>
        <time>2022-12-18T08:55:37Z</time>
      </trkpt>
      <trkpt lat="36.846350" lon="-3.680076">
        <ele>785.5</ele>
        <time>2022-12-18T08:55:54Z</time>
      </trkpt>
      <trkpt lat="36.846515" lon="-3.679910">
        <ele>782.2</ele>
        <time>2022-12-18T08:56:11Z</time>
      </trkpt>
      <trkpt lat="36.846618" lon="-3.679710">
        <ele>780.2</ele>
        <time>2022-12-18T08:56:25Z</time>
      </trkpt>
      <trkpt lat="36.846744" lon="-3.679530">
        <ele>780.2</ele>
        <time>2022-12-18T08:56:39Z</time>
      </trkpt>
      <trkpt lat="36.846887" lon="-3.679345">
        <ele>778.3</ele>
        <time>2022-12-18T08:56:56Z</time>
      </trkpt>
      <trkpt lat="36.847054" lon="-3.679099">
        <ele>775.9</ele>
        <time>2022-12-18T08:57:14Z</time>
      </trkpt>
      <trkpt lat="36.847149" lon="-3.678829">
        <ele>775.0</ele>
        <time>2022-12-18T08:57:30Z</time>
      </trkpt>
      <trkpt lat="36.847345" lon="-3.678573">
        <ele>773.5</ele>
        <time>2022-12-18T08:57:54Z</time>
      </trkpt>
      <trkpt lat="36.847579" lon="-3.678382">
        <ele>775.4</ele>
        <time>2022-12-18T08:58:23Z</time>
      </trkpt>
      <trkpt lat="36.847633" lon="-3.678651">
        <ele>778.3</ele>
        <time>2022-12-18T08:58:48Z</time>
      </trkpt>
      <trkpt lat="36.847599" lon="-3.678912">
        <ele>780.7</ele>
        <time>2022-12-18T08:59:08Z</time>
      </trkpt>
      <trkpt lat="36.847638" lon="-3.679164">
        <ele>781.7</ele>
        <time>2022-12-18T08:59:24Z</time>
      </trkpt>
      <trkpt lat="36.847789" lon="-3.679323">
        <ele>783.6</ele>
        <time>2022-12-18T08:59:41Z</time>
      </trkpt>
      <trkpt lat="36.847927" lon="-3.679503">
        <ele>788.4</ele>
        <time>2022-12-18T08:59:59Z</time>
      </trkpt>
      <trkpt lat="36.848094" lon="-3.679642">
        <ele>791.3</ele>
        <time>2022-12-18T09:00:18Z</time>
      </trkpt>
      <trkpt lat="36.848238" lon="-3.679790">
        <ele>794.2</ele>
        <time>2022-12-18T09:00:36Z</time>
      </trkpt>
      <trkpt lat="36.848348" lon="-3.680002">
        <ele>797.6</ele>
        <time>2022-12-18T09:00:56Z</time>
      </trkpt>
      <trkpt lat="36.848416" lon="-3.680233">
        <ele>800.0</ele>
        <time>2022-12-18T09:01:14Z</time>
      </trkpt>
      <trkpt lat="36.848465" lon="-3.680468">
        <ele>804.3</ele>
        <time>2022-12-18T09:01:31Z</time>
      </trkpt>
      <trkpt lat="36.848524" lon="-3.680684">
        <ele>804.8</ele>
        <time>2022-12-18T09:01:47Z</time>
      </trkpt>
      <trkpt lat="36.848682" lon="-3.680776">
        <ele>805.2</ele>
        <time>2022-12-18T09:02:02Z</time>
      </trkpt>
      <trkpt lat="36.848868" lon="-3.680822">
        <ele>803.8</ele>
        <time>2022-12-18T09:02:17Z</time>
      </trkpt>
      <trkpt lat="36.849057" lon="-3.680779">
        <ele>802.4</ele>
        <time>2022-12-18T09:02:33Z</time>
      </trkpt>
      <trkpt lat="36.849255" lon="-3.680714">
        <ele>800.0</ele>
        <time>2022-12-18T09:02:48Z</time>
      </trkpt>
      <trkpt lat="36.849463" lon="-3.680765">
        <ele>799.0</ele>
        <time>2022-12-18T09:03:02Z</time>
      </trkpt>
      <trkpt lat="36.849663" lon="-3.680755">
        <ele>797.6</ele>
        <time>2022-12-18T09:03:17Z</time>
      </trkpt>
      <trkpt lat="36.849872" lon="-3.680739">
        <ele>796.1</ele>
        <time>2022-12-18T09:03:39Z</time>
      </trkpt>
      <trkpt lat="36.850095" lon="-3.680713">
        <ele>793.7</ele>
        <time>2022-12-18T09:04:00Z</time>
      </trkpt>
      <trkpt lat="36.850293" lon="-3.680768">
        <ele>791.3</ele>
        <time>2022-12-18T09:04:17Z</time>
      </trkpt>
      <trkpt lat="36.850513" lon="-3.680774">
        <ele>788.4</ele>
        <time>2022-12-18T09:04:34Z</time>
      </trkpt>
      <trkpt lat="36.850678" lon="-3.680634">
        <ele>787.0</ele>
        <time>2022-12-18T09:04:49Z</time>
      </trkpt>
      <trkpt lat="36.850838" lon="-3.680512">
        <ele>786.5</ele>
        <time>2022-12-18T09:05:10Z</time>
      </trkpt>
      <trkpt lat="36.850937" lon="-3.680637">
        <ele>786.0</ele>
        <time>2022-12-18T09:05:46Z</time>
      </trkpt>
      <trkpt lat="36.851013" lon="-3.680790">
        <ele>787.9</ele>
        <time>2022-12-18T09:06:24Z</time>
      </trkpt>
      <trkpt lat="36.851194" lon="-3.680768">
        <ele>789.9</ele>
        <time>2022-12-18T09:06:51Z</time>
      </trkpt>
      <trkpt lat="36.851270" lon="-3.680579">
        <ele>796.1</ele>
        <time>2022-12-18T09:07:26Z</time>
      </trkpt>
      <trkpt lat="36.851298" lon="-3.680444">
        <ele>800.9</ele>
        <time>2022-12-18T09:07:50Z</time>
      </trkpt>
      <trkpt lat="36.851472" lon="-3.680453">
        <ele>802.8</ele>
        <time>2022-12-18T09:08:10Z</time>
      </trkpt>
      <trkpt lat="36.851644" lon="-3.680383">
        <ele>804.8</ele>
        <time>2022-12-18T09:08:33Z</time>
      </trkpt>
      <trkpt lat="36.851824" lon="-3.680290">
        <ele>807.6</ele>
        <time>2022-12-18T09:08:53Z</time>
      </trkpt>
      <trkpt lat="36.851986" lon="-3.680183">
        <ele>811.0</ele>
        <time>2022-12-18T09:09:14Z</time>
      </trkpt>
      <trkpt lat="36.852122" lon="-3.680010">
        <ele>815.3</ele>
        <time>2022-12-18T09:09:34Z</time>
      </trkpt>
      <trkpt lat="36.852110" lon="-3.679855">
        <ele>821.6</ele>
        <time>2022-12-18T09:09:58Z</time>
      </trkpt>
      <trkpt lat="36.852129" lon="-3.679678">
        <ele>824.5</ele>
        <time>2022-12-18T09:10:36Z</time>
      </trkpt>
      <trkpt lat="36.852190" lon="-3.679580">
        <ele>832.6</ele>
        <time>2022-12-18T09:11:03Z</time>
      </trkpt>
      <trkpt lat="36.852291" lon="-3.679504">
        <ele>836.0</ele>
        <time>2022-12-18T09:11:29Z</time>
      </trkpt>
      <trkpt lat="36.852460" lon="-3.679437">
        <ele>841.3</ele>
        <time>2022-12-18T09:11:57Z</time>
      </trkpt>
      <trkpt lat="36.852539" lon="-3.679222">
        <ele>847.1</ele>
        <time>2022-12-18T09:12:21Z</time>
      </trkpt>
      <trkpt lat="36.852704" lon="-3.679105">
        <ele>847.1</ele>
        <time>2022-12-18T09:12:38Z</time>
      </trkpt>
      <trkpt lat="36.852869" lon="-3.678966">
        <ele>849.5</ele>
        <time>2022-12-18T09:12:56Z</time>
      </trkpt>
      <trkpt lat="36.852994" lon="-3.678816">
        <ele>851.4</ele>
        <time>2022-12-18T09:13:16Z</time>
      </trkpt>
      <trkpt lat="36.853091" lon="-3.678622">
        <ele>856.7</ele>
        <time>2022-12-18T09:13:38Z</time>
      </trkpt>
      <trkpt lat="36.853263" lon="-3.678517">
        <ele>857.6</ele>
        <time>2022-12-18T09:13:55Z</time>
      </trkpt>
      <trkpt lat="36.853402" lon="-3.678359">
        <ele>861.0</ele>
        <time>2022-12-18T09:14:17Z</time>
      </trkpt>
      <trkpt lat="36.853588" lon="-3.678301">
        <ele>865.3</ele>
        <time>2022-12-18T09:14:39Z</time>
      </trkpt>
      <trkpt lat="36.853709" lon="-3.678127">
        <ele>865.3</ele>
        <time>2022-12-18T09:14:58Z</time>
      </trkpt>
      <trkpt lat="36.853790" lon="-3.677903">
        <ele>867.7</ele>
        <time>2022-12-18T09:15:18Z</time>
      </trkpt>
      <trkpt lat="36.853968" lon="-3.677785">
        <ele>868.7</ele>
        <time>2022-12-18T09:15:40Z</time>
      </trkpt>
      <trkpt lat="36.854089" lon="-3.677605">
        <ele>870.1</ele>
        <time>2022-12-18T09:16:01Z</time>
      </trkpt>
      <trkpt lat="36.854274" lon="-3.677504">
        <ele>871.1</ele>
        <time>2022-12-18T09:16:21Z</time>
      </trkpt>
      <trkpt lat="36.854384" lon="-3.677322">
        <ele>869.6</ele>
        <time>2022-12-18T09:17:19Z</time>
      </trkpt>
      <trkpt lat="36.854489" lon="-3.677103">
        <ele>873.0</ele>
        <time>2022-12-18T09:17:39Z</time>
      </trkpt>
      <trkpt lat="36.854684" lon="-3.677013">
        <ele>871.6</ele>
        <time>2022-12-18T09:18:37Z</time>
      </trkpt>
      <trkpt lat="36.854871" lon="-3.676956">
        <ele>869.2</ele>
        <time>2022-12-18T09:18:57Z</time>
      </trkpt>
      <trkpt lat="36.854915" lon="-3.677115">
        <ele>876.4</ele>
        <time>2022-12-18T09:19:24Z</time>
      </trkpt>
      <trkpt lat="36.855079" lon="-3.677030">
        <ele>877.3</ele>
        <time>2022-12-18T09:19:47Z</time>
      </trkpt>
      <trkpt lat="36.855274" lon="-3.676946">
        <ele>879.7</ele>
        <time>2022-12-18T09:20:10Z</time>
      </trkpt>
      <trkpt lat="36.855442" lon="-3.676832">
        <ele>880.7</ele>
        <time>2022-12-18T09:20:26Z</time>
      </trkpt>
      <trkpt lat="36.855565" lon="-3.676668">
        <ele>880.7</ele>
        <time>2022-12-18T09:20:43Z</time>
      </trkpt>
      <trkpt lat="36.855746" lon="-3.676612">
        <ele>886.5</ele>
        <time>2022-12-18T09:21:04Z</time>
      </trkpt>
      <trkpt lat="36.855903" lon="-3.676496">
        <ele>890.3</ele>
        <time>2022-12-18T09:21:27Z</time>
      </trkpt>
      <trkpt lat="36.856096" lon="-3.676383">
        <ele>896.6</ele>
        <time>2022-12-18T09:21:51Z</time>
      </trkpt>
      <trkpt lat="36.856231" lon="-3.676247">
        <ele>901.9</ele>
        <time>2022-12-18T09:22:17Z</time>
      </trkpt>
      <trkpt lat="36.856380" lon="-3.676141">
        <ele>903.8</ele>
        <time>2022-12-18T09:22:47Z</time>
      </trkpt>
      <trkpt lat="36.856502" lon="-3.675990">
        <ele>908.6</ele>
        <time>2022-12-18T09:23:12Z</time>
      </trkpt>
      <trkpt lat="36.856611" lon="-3.675798">
        <ele>908.6</ele>
        <time>2022-12-18T09:23:30Z</time>
      </trkpt>
      <trkpt lat="36.856798" lon="-3.675593">
        <ele>913.9</ele>
        <time>2022-12-18T09:24:20Z</time>
      </trkpt>
      <trkpt lat="36.856969" lon="-3.675387">
        <ele>920.6</ele>
        <time>2022-12-18T09:25:01Z</time>
      </trkpt>
      <trkpt lat="36.857123" lon="-3.675559">
        <ele>921.1</ele>
        <time>2022-12-18T09:25:20Z</time>
      </trkpt>
      <trkpt lat="36.857250" lon="-3.675605">
        <ele>923.5</ele>
        <time>2022-12-18T09:25:44Z</time>
      </trkpt>
      <trkpt lat="36.857297" lon="-3.675495">
        <ele>926.8</ele>
        <time>2022-12-18T09:26:08Z</time>
      </trkpt>
      <trkpt lat="36.857416" lon="-3.675473">
        <ele>930.7</ele>
        <time>2022-12-18T09:26:34Z</time>
      </trkpt>
      <trkpt lat="36.857453" lon="-3.675333">
        <ele>936.5</ele>
        <time>2022-12-18T09:26:58Z</time>
      </trkpt>
      <trkpt lat="36.857503" lon="-3.675196">
        <ele>938.4</ele>
        <time>2022-12-18T09:27:30Z</time>
      </trkpt>
      <trkpt lat="36.857682" lon="-3.675181">
        <ele>942.2</ele>
        <time>2022-12-18T09:28:05Z</time>
      </trkpt>
      <trkpt lat="36.857783" lon="-3.674954">
        <ele>946.1</ele>
        <time>2022-12-18T09:28:27Z</time>
      </trkpt>
      <trkpt lat="36.857803" lon="-3.674749">
        <ele>950.9</ele>
        <time>2022-12-18T09:28:57Z</time>
      </trkpt>
      <trkpt lat="36.857909" lon="-3.674548">
        <ele>955.7</ele>
        <time>2022-12-18T09:29:57Z</time>
      </trkpt>
      <trkpt lat="36.858086" lon="-3.674444">
        <ele>960.0</ele>
        <time>2022-12-18T09:30:21Z</time>
      </trkpt>
      <trkpt lat="36.858093" lon="-3.674282">
        <ele>965.3</ele>
        <time>2022-12-18T09:31:33Z</time>
      </trkpt>
      <trkpt lat="36.858173" lon="-3.674142">
        <ele>972.5</ele>
        <time>2022-12-18T09:32:02Z</time>
      </trkpt>
      <trkpt lat="36.858359" lon="-3.674195">
        <ele>979.2</ele>
        <time>2022-12-18T09:32:27Z</time>
      </trkpt>
      <trkpt lat="36.858555" lon="-3.674138">
        <ele>980.2</ele>
        <time>2022-12-18T09:32:50Z</time>
      </trkpt>
      <trkpt lat="36.858662" lon="-3.673970">
        <ele>985.0</ele>
        <time>2022-12-18T09:33:13Z</time>
      </trkpt>
      <trkpt lat="36.858747" lon="-3.673780">
        <ele>986.4</ele>
        <time>2022-12-18T09:33:31Z</time>
      </trkpt>
      <trkpt lat="36.858845" lon="-3.673583">
        <ele>986.4</ele>
        <time>2022-12-18T09:33:52Z</time>
      </trkpt>
      <trkpt lat="36.859041" lon="-3.673498">
        <ele>994.1</ele>
        <time>2022-12-18T09:34:15Z</time>
      </trkpt>
      <trkpt lat="36.859193" lon="-3.673453">
        <ele>995.6</ele>
        <time>2022-12-18T09:35:08Z</time>
      </trkpt>
      <trkpt lat="36.859317" lon="-3.673340">
        <ele>997.5</ele>
        <time>2022-12-18T09:36:19Z</time>
      </trkpt>
      <trkpt lat="36.859408" lon="-3.673154">
        <ele>1000.9</ele>
        <time>2022-12-18T09:37:04Z</time>
      </trkpt>
      <trkpt lat="36.859559" lon="-3.673048">
        <ele>1005.7</ele>
        <time>2022-12-18T09:37:29Z</time>
      </trkpt>
      <trkpt lat="36.859447" lon="-3.672914">
        <ele>1009.5</ele>
        <time>2022-12-18T09:38:00Z</time>
      </trkpt>
      <trkpt lat="36.859562" lon="-3.672702">
        <ele>1018.2</ele>
        <time>2022-12-18T09:38:35Z</time>
      </trkpt>
      <trkpt lat="36.859788" lon="-3.672586">
        <ele>1025.4</ele>
        <time>2022-12-18T09:39:24Z</time>
      </trkpt>
      <trkpt lat="36.859958" lon="-3.672466">
        <ele>1027.3</ele>
        <time>2022-12-18T09:39:51Z</time>
      </trkpt>
      <trkpt lat="36.860083" lon="-3.672287">
        <ele>1035.0</ele>
        <time>2022-12-18T09:40:30Z</time>
      </trkpt>
      <trkpt lat="36.860249" lon="-3.672174">
        <ele>1041.2</ele>
        <time>2022-12-18T09:41:08Z</time>
      </trkpt>
      <trkpt lat="36.860277" lon="-3.672142">
        <ele>1041.7</ele>
        <time>2022-12-18T09:42:48Z</time>
      </trkpt>
      <trkpt lat="36.860353" lon="-3.672058">
        <ele>1045.6</ele>
        <time>2022-12-18T09:44:30Z</time>
      </trkpt>
      <trkpt lat="36.860558" lon="-3.672071">
        <ele>1050.9</ele>
        <time>2022-12-18T09:45:00Z</time>
      </trkpt>
      <trkpt lat="36.860669" lon="-3.672092">
        <ele>1055.7</ele>
        <time>2022-12-18T09:45:23Z</time>
      </trkpt>
      <trkpt lat="36.860685" lon="-3.671947">
        <ele>1060.0</ele>
        <time>2022-12-18T09:46:22Z</time>
      </trkpt>
      <trkpt lat="36.860525" lon="-3.671822">
        <ele>1063.4</ele>
        <time>2022-12-18T09:46:58Z</time>
      </trkpt>
      <trkpt lat="36.860335" lon="-3.671812">
        <ele>1065.8</ele>
        <time>2022-12-18T09:47:17Z</time>
      </trkpt>
      <trkpt lat="36.860279" lon="-3.671703">
        <ele>1068.6</ele>
        <time>2022-12-18T09:48:26Z</time>
      </trkpt>
      <trkpt lat="36.860510" lon="-3.671567">
        <ele>1076.3</ele>
        <time>2022-12-18T09:49:12Z</time>
      </trkpt>
      <trkpt lat="36.860686" lon="-3.671567">
        <ele>1079.7</ele>
        <time>2022-12-18T09:49:31Z</time>
      </trkpt>
      <trkpt lat="36.860874" lon="-3.671566">
        <ele>1083.1</ele>
        <time>2022-12-18T09:49:58Z</time>
      </trkpt>
      <trkpt lat="36.861033" lon="-3.671640">
        <ele>1085.5</ele>
        <time>2022-12-18T09:50:28Z</time>
      </trkpt>
      <trkpt lat="36.861172" lon="-3.671713">
        <ele>1088.8</ele>
        <time>2022-12-18T09:51:11Z</time>
      </trkpt>
      <trkpt lat="36.861268" lon="-3.671696">
        <ele>1093.6</ele>
        <time>2022-12-18T09:51:44Z</time>
      </trkpt>
      <trkpt lat="36.861196" lon="-3.671505">
        <ele>1098.4</ele>
        <time>2022-12-18T09:52:09Z</time>
      </trkpt>
      <trkpt lat="36.861235" lon="-3.671235">
        <ele>1106.1</ele>
        <time>2022-12-18T09:53:58Z</time>
      </trkpt>
      <trkpt lat="36.861456" lon="-3.671321">
        <ele>1110.0</ele>
        <time>2022-12-18T09:54:35Z</time>
      </trkpt>
      <trkpt lat="36.861562" lon="-3.671281">
        <ele>1115.7</ele>
        <time>2022-12-18T09:55:43Z</time>
      </trkpt>
      <trkpt lat="36.861480" lon="-3.671041">
        <ele>1122.0</ele>
        <time>2022-12-18T09:56:51Z</time>
      </trkpt>
      <trkpt lat="36.861270" lon="-3.670834">
        <ele>1128.2</ele>
        <time>2022-12-18T09:57:36Z</time>
      </trkpt>
      <trkpt lat="36.861367" lon="-3.670731">
        <ele>1133.1</ele>
        <time>2022-12-18T09:58:15Z</time>
      </trkpt>
      <trkpt lat="36.861569" lon="-3.670772">
        <ele>1136.9</ele>
        <time>2022-12-18T09:58:52Z</time>
      </trkpt>
      <trkpt lat="36.861748" lon="-3.670812">
        <ele>1143.1</ele>
        <time>2022-12-18T09:59:18Z</time>
      </trkpt>
      <trkpt lat="36.861869" lon="-3.670988">
        <ele>1144.6</ele>
        <time>2022-12-18T09:59:45Z</time>
      </trkpt>
      <trkpt lat="36.862020" lon="-3.671083">
        <ele>1150.8</ele>
        <time>2022-12-18T10:00:29Z</time>
      </trkpt>
      <trkpt lat="36.862222" lon="-3.670985">
        <ele>1149.9</ele>
        <time>2022-12-18T10:00:56Z</time>
      </trkpt>
      <trkpt lat="36.862428" lon="-3.671007">
        <ele>1157.6</ele>
        <time>2022-12-18T10:01:24Z</time>
      </trkpt>
      <trkpt lat="36.862574" lon="-3.670929">
        <ele>1161.9</ele>
        <time>2022-12-18T10:02:04Z</time>
      </trkpt>
      <trkpt lat="36.862797" lon="-3.670807">
        <ele>1165.7</ele>
        <time>2022-12-18T10:02:37Z</time>
      </trkpt>
      <trkpt lat="36.862998" lon="-3.670781">
        <ele>1169.1</ele>
        <time>2022-12-18T10:03:00Z</time>
      </trkpt>
      <trkpt lat="36.863148" lon="-3.670903">
        <ele>1171.0</ele>
        <time>2022-12-18T10:03:22Z</time>
      </trkpt>
      <trkpt lat="36.863337" lon="-3.670945">
        <ele>1172.0</ele>
        <time>2022-12-18T10:03:44Z</time>
      </trkpt>
      <trkpt lat="36.863422" lon="-3.671162">
        <ele>1174.4</ele>
        <time>2022-12-18T10:04:01Z</time>
      </trkpt>
      <trkpt lat="36.863555" lon="-3.671321">
        <ele>1179.2</ele>
        <time>2022-12-18T10:04:25Z</time>
      </trkpt>
      <trkpt lat="36.863721" lon="-3.671454">
        <ele>1181.1</ele>
        <time>2022-12-18T10:05:11Z</time>
      </trkpt>
      <trkpt lat="36.863782" lon="-3.671415">
        <ele>1183.0</ele>
        <time>2022-12-18T10:05:39Z</time>
      </trkpt>
      <trkpt lat="36.863909" lon="-3.671448">
        <ele>1192.2</ele>
        <time>2022-12-18T10:06:38Z</time>
      </trkpt>
      <trkpt lat="36.864079" lon="-3.671564">
        <ele>1196.0</ele>
        <time>2022-12-18T10:07:22Z</time>
      </trkpt>
      <trkpt lat="36.864209" lon="-3.671721">
        <ele>1193.6</ele>
        <time>2022-12-18T10:07:45Z</time>
      </trkpt>
      <trkpt lat="36.864287" lon="-3.671931">
        <ele>1200.8</ele>
        <time>2022-12-18T10:08:21Z</time>
      </trkpt>
      <trkpt lat="36.864320" lon="-3.672138">
        <ele>1206.6</ele>
        <time>2022-12-18T10:08:49Z</time>
      </trkpt>
      <trkpt lat="36.864437" lon="-3.672306">
        <ele>1211.4</ele>
        <time>2022-12-18T10:09:27Z</time>
      </trkpt>
      <trkpt lat="36.864514" lon="-3.672408">
        <ele>1213.8</ele>
        <time>2022-12-18T10:11:53Z</time>
      </trkpt>
      <trkpt lat="36.864462" lon="-3.672499">
        <ele>1215.2</ele>
        <time>2022-12-18T10:12:27Z</time>
      </trkpt>
      <trkpt lat="36.864437" lon="-3.672630">
        <ele>1219.1</ele>
        <time>2022-12-18T10:15:21Z</time>
      </trkpt>
      <trkpt lat="36.864391" lon="-3.672630">
        <ele>1218.1</ele>
        <time>2022-12-18T10:21:54Z</time>
      </trkpt>
      <trkpt lat="36.864488" lon="-3.672600">
        <ele>1216.2</ele>
        <time>2022-12-18T10:23:29Z</time>
      </trkpt>
      <trkpt lat="36.864430" lon="-3.672792">
        <ele>1215.2</ele>
        <time>2022-12-18T10:24:49Z</time>
      </trkpt>
      <trkpt lat="36.864465" lon="-3.672578">
        <ele>1216.7</ele>
        <time>2022-12-18T10:29:37Z</time>
      </trkpt>
      <trkpt lat="36.864461" lon="-3.672368">
        <ele>1213.3</ele>
        <time>2022-12-18T10:30:15Z</time>
      </trkpt>
      <trkpt lat="36.864488" lon="-3.672132">
        <ele>1211.4</ele>
        <time>2022-12-18T10:30:54Z</time>
      </trkpt>
      <trkpt lat="36.864419" lon="-3.671930">
        <ele>1208.0</ele>
        <time>2022-12-18T10:31:10Z</time>
      </trkpt>
      <trkpt lat="36.864365" lon="-3.671710">
        <ele>1207.6</ele>
        <time>2022-12-18T10:31:26Z</time>
      </trkpt>
      <trkpt lat="36.864296" lon="-3.671504">
        <ele>1209.5</ele>
        <time>2022-12-18T10:31:42Z</time>
      </trkpt>
      <trkpt lat="36.864280" lon="-3.671281">
        <ele>1214.3</ele>
        <time>2022-12-18T10:32:01Z</time>
      </trkpt>
      <trkpt lat="36.864288" lon="-3.671051">
        <ele>1217.6</ele>
        <time>2022-12-18T10:32:31Z</time>
      </trkpt>
      <trkpt lat="36.864142" lon="-3.671007">
        <ele>1222.5</ele>
        <time>2022-12-18T10:33:05Z</time>
      </trkpt>
      <trkpt lat="36.864018" lon="-3.670842">
        <ele>1223.9</ele>
        <time>2022-12-18T10:33:25Z</time>
      </trkpt>
      <trkpt lat="36.863950" lon="-3.670627">
        <ele>1225.3</ele>
        <time>2022-12-18T10:33:44Z</time>
      </trkpt>
      <trkpt lat="36.863893" lon="-3.670409">
        <ele>1226.8</ele>
        <time>2022-12-18T10:34:01Z</time>
      </trkpt>
      <trkpt lat="36.863774" lon="-3.670229">
        <ele>1231.6</ele>
        <time>2022-12-18T10:34:21Z</time>
      </trkpt>
      <trkpt lat="36.863678" lon="-3.670048">
        <ele>1233.0</ele>
        <time>2022-12-18T10:34:40Z</time>
      </trkpt>
      <trkpt lat="36.863550" lon="-3.669878">
        <ele>1234.5</ele>
        <time>2022-12-18T10:34:57Z</time>
      </trkpt>
      <trkpt lat="36.863414" lon="-3.669726">
        <ele>1237.8</ele>
        <time>2022-12-18T10:35:16Z</time>
      </trkpt>
      <trkpt lat="36.863417" lon="-3.669543">
        <ele>1241.7</ele>
        <time>2022-12-18T10:35:42Z</time>
      </trkpt>
      <trkpt lat="36.863271" lon="-3.669455">
        <ele>1245.5</ele>
        <time>2022-12-18T10:36:06Z</time>
      </trkpt>
      <trkpt lat="36.863137" lon="-3.669325">
        <ele>1250.3</ele>
        <time>2022-12-18T10:36:33Z</time>
      </trkpt>
      <trkpt lat="36.863096" lon="-3.669162">
        <ele>1249.9</ele>
        <time>2022-12-18T10:37:20Z</time>
      </trkpt>
      <trkpt lat="36.863039" lon="-3.668879">
        <ele>1246.0</ele>
        <time>2022-12-18T10:37:52Z</time>
      </trkpt>
      <trkpt lat="36.862962" lon="-3.668604">
        <ele>1240.2</ele>
        <time>2022-12-18T10:38:22Z</time>
      </trkpt>
      <trkpt lat="36.862863" lon="-3.668376">
        <ele>1244.1</ele>
        <time>2022-12-18T10:39:16Z</time>
      </trkpt>
      <trkpt lat="36.862733" lon="-3.668165">
        <ele>1253.7</ele>
        <time>2022-12-18T10:39:53Z</time>
      </trkpt>
      <trkpt lat="36.862701" lon="-3.668252">
        <ele>1255.6</ele>
        <time>2022-12-18T10:40:59Z</time>
      </trkpt>
      <trkpt lat="36.862723" lon="-3.668256">
        <ele>1256.1</ele>
        <time>2022-12-18T10:42:59Z</time>
      </trkpt>
      <trkpt lat="36.862688" lon="-3.667961">
        <ele>1256.1</ele>
        <time>2022-12-18T10:44:09Z</time>
      </trkpt>
      <trkpt lat="36.862645" lon="-3.667707">
        <ele>1257.1</ele>
        <time>2022-12-18T10:45:44Z</time>
      </trkpt>
      <trkpt lat="36.862540" lon="-3.667524">
        <ele>1256.6</ele>
        <time>2022-12-18T10:46:16Z</time>
      </trkpt>
      <trkpt lat="36.862385" lon="-3.667621">
        <ele>1259.9</ele>
        <time>2022-12-18T10:47:01Z</time>
      </trkpt>
      <trkpt lat="36.862205" lon="-3.667680">
        <ele>1259.9</ele>
        <time>2022-12-18T10:47:18Z</time>
      </trkpt>
      <trkpt lat="36.862021" lon="-3.667717">
        <ele>1260.4</ele>
        <time>2022-12-18T10:47:34Z</time>
      </trkpt>
      <trkpt lat="36.861838" lon="-3.667752">
        <ele>1260.9</ele>
        <time>2022-12-18T10:47:51Z</time>
      </trkpt>
      <trkpt lat="36.861655" lon="-3.667772">
        <ele>1264.8</ele>
        <time>2022-12-18T10:48:07Z</time>
      </trkpt>
      <trkpt lat="36.861468" lon="-3.667859">
        <ele>1264.3</ele>
        <time>2022-12-18T10:49:09Z</time>
      </trkpt>
      <trkpt lat="36.861288" lon="-3.667805">
        <ele>1261.4</ele>
        <time>2022-12-18T10:49:24Z</time>
      </trkpt>
      <trkpt lat="36.861117" lon="-3.667828">
        <ele>1257.5</ele>
        <time>2022-12-18T10:50:13Z</time>
      </trkpt>
      <trkpt lat="36.860936" lon="-3.667856">
        <ele>1255.6</ele>
        <time>2022-12-18T10:50:30Z</time>
      </trkpt>
      <trkpt lat="36.860736" lon="-3.667896">
        <ele>1253.2</ele>
        <time>2022-12-18T10:50:48Z</time>
      </trkpt>
      <trkpt lat="36.860543" lon="-3.667930">
        <ele>1249.4</ele>
        <time>2022-12-18T10:51:05Z</time>
      </trkpt>
      <trkpt lat="36.860335" lon="-3.668002">
        <ele>1247.4</ele>
        <time>2022-12-18T10:51:28Z</time>
      </trkpt>
      <trkpt lat="36.860116" lon="-3.668058">
        <ele>1246.5</ele>
        <time>2022-12-18T10:51:56Z</time>
      </trkpt>
      <trkpt lat="36.859921" lon="-3.668061">
        <ele>1239.8</ele>
        <time>2022-12-18T10:52:24Z</time>
      </trkpt>
      <trkpt lat="36.859752" lon="-3.668183">
        <ele>1237.8</ele>
        <time>2022-12-18T10:52:41Z</time>
      </trkpt>
      <trkpt lat="36.859566" lon="-3.668219">
        <ele>1235.9</ele>
        <time>2022-12-18T10:52:57Z</time>
      </trkpt>
      <trkpt lat="36.859374" lon="-3.668252">
        <ele>1233.0</ele>
        <time>2022-12-18T10:53:14Z</time>
      </trkpt>
      <trkpt lat="36.859505" lon="-3.668123">
        <ele>1230.6</ele>
        <time>2022-12-18T10:53:32Z</time>
      </trkpt>
      <trkpt lat="36.859660" lon="-3.668001">
        <ele>1227.7</ele>
        <time>2022-12-18T10:53:48Z</time>
      </trkpt>
      <trkpt lat="36.859775" lon="-3.667808">
        <ele>1226.3</ele>
        <time>2022-12-18T10:54:07Z</time>
      </trkpt>
      <trkpt lat="36.859881" lon="-3.667613">
        <ele>1224.4</ele>
        <time>2022-12-18T10:54:24Z</time>
      </trkpt>
      <trkpt lat="36.859962" lon="-3.667466">
        <ele>1220.1</ele>
        <time>2022-12-18T10:54:47Z</time>
      </trkpt>
      <trkpt lat="36.859771" lon="-3.667442">
        <ele>1215.7</ele>
        <time>2022-12-18T10:55:32Z</time>
      </trkpt>
      <trkpt lat="36.859616" lon="-3.667577">
        <ele>1213.3</ele>
        <time>2022-12-18T10:55:52Z</time>
      </trkpt>
      <trkpt lat="36.859455" lon="-3.667738">
        <ele>1210.4</ele>
        <time>2022-12-18T10:56:11Z</time>
      </trkpt>
      <trkpt lat="36.859303" lon="-3.667861">
        <ele>1207.6</ele>
        <time>2022-12-18T10:56:28Z</time>
      </trkpt>
      <trkpt lat="36.859115" lon="-3.667943">
        <ele>1207.6</ele>
        <time>2022-12-18T10:56:44Z</time>
      </trkpt>
      <trkpt lat="36.858927" lon="-3.668020">
        <ele>1208.0</ele>
        <time>2022-12-18T10:57:03Z</time>
      </trkpt>
      <trkpt lat="36.858773" lon="-3.668224">
        <ele>1211.4</ele>
        <time>2022-12-18T10:57:27Z</time>
      </trkpt>
      <trkpt lat="36.858592" lon="-3.668327">
        <ele>1210.0</ele>
        <time>2022-12-18T10:57:44Z</time>
      </trkpt>
      <trkpt lat="36.858421" lon="-3.668406">
        <ele>1210.0</ele>
        <time>2022-12-18T10:58:00Z</time>
      </trkpt>
      <trkpt lat="36.858246" lon="-3.668414">
        <ele>1208.0</ele>
        <time>2022-12-18T10:58:25Z</time>
      </trkpt>
      <trkpt lat="36.858063" lon="-3.668443">
        <ele>1207.1</ele>
        <time>2022-12-18T10:58:40Z</time>
      </trkpt>
      <trkpt lat="36.857896" lon="-3.668515">
        <ele>1201.8</ele>
        <time>2022-12-18T10:59:00Z</time>
      </trkpt>
      <trkpt lat="36.857782" lon="-3.668480">
        <ele>1197.5</ele>
        <time>2022-12-18T10:59:19Z</time>
      </trkpt>
      <trkpt lat="36.857601" lon="-3.668491">
        <ele>1194.1</ele>
        <time>2022-12-18T10:59:36Z</time>
      </trkpt>
      <trkpt lat="36.857438" lon="-3.668485">
        <ele>1184.5</ele>
        <time>2022-12-18T10:59:57Z</time>
      </trkpt>
      <trkpt lat="36.857406" lon="-3.668391">
        <ele>1182.1</ele>
        <time>2022-12-18T11:00:31Z</time>
      </trkpt>
      <trkpt lat="36.857243" lon="-3.668528">
        <ele>1179.7</ele>
        <time>2022-12-18T11:00:48Z</time>
      </trkpt>
      <trkpt lat="36.857034" lon="-3.668495">
        <ele>1179.2</ele>
        <time>2022-12-18T11:01:04Z</time>
      </trkpt>
      <trkpt lat="36.856865" lon="-3.668406">
        <ele>1178.2</ele>
        <time>2022-12-18T11:01:19Z</time>
      </trkpt>
      <trkpt lat="36.856711" lon="-3.668301">
        <ele>1175.8</ele>
        <time>2022-12-18T11:01:55Z</time>
      </trkpt>
      <trkpt lat="36.856537" lon="-3.668227">
        <ele>1174.9</ele>
        <time>2022-12-18T11:02:11Z</time>
      </trkpt>
      <trkpt lat="36.856341" lon="-3.668250">
        <ele>1175.3</ele>
        <time>2022-12-18T11:02:27Z</time>
      </trkpt>
      <trkpt lat="36.856172" lon="-3.668255">
        <ele>1171.0</ele>
        <time>2022-12-18T11:03:04Z</time>
      </trkpt>
      <trkpt lat="36.856000" lon="-3.668240">
        <ele>1166.7</ele>
        <time>2022-12-18T11:03:32Z</time>
      </trkpt>
      <trkpt lat="36.855862" lon="-3.668174">
        <ele>1161.4</ele>
        <time>2022-12-18T11:03:55Z</time>
      </trkpt>
      <trkpt lat="36.855750" lon="-3.668140">
        <ele>1155.6</ele>
        <time>2022-12-18T11:04:20Z</time>
      </trkpt>
      <trkpt lat="36.855828" lon="-3.668001">
        <ele>1152.8</ele>
        <time>2022-12-18T11:04:42Z</time>
      </trkpt>
      <trkpt lat="36.855651" lon="-3.668008">
        <ele>1148.9</ele>
        <time>2022-12-18T11:04:58Z</time>
      </trkpt>
      <trkpt lat="36.855466" lon="-3.668030">
        <ele>1144.1</ele>
        <time>2022-12-18T11:05:13Z</time>
      </trkpt>
      <trkpt lat="36.855327" lon="-3.668059">
        <ele>1144.6</ele>
        <time>2022-12-18T11:07:34Z</time>
      </trkpt>
      <trkpt lat="36.855326" lon="-3.668021">
        <ele>1141.7</ele>
        <time>2022-12-18T11:15:07Z</time>
      </trkpt>
      <trkpt lat="36.855461" lon="-3.667947">
        <ele>1138.3</ele>
        <time>2022-12-18T11:15:29Z</time>
      </trkpt>
      <trkpt lat="36.855343" lon="-3.667854">
        <ele>1135.0</ele>
        <time>2022-12-18T11:15:51Z</time>
      </trkpt>
      <trkpt lat="36.855167" lon="-3.667772">
        <ele>1132.1</ele>
        <time>2022-12-18T11:16:10Z</time>
      </trkpt>
      <trkpt lat="36.855024" lon="-3.667622">
        <ele>1125.4</ele>
        <time>2022-12-18T11:16:32Z</time>
      </trkpt>
      <trkpt lat="36.854853" lon="-3.667419">
        <ele>1119.6</ele>
        <time>2022-12-18T11:16:54Z</time>
      </trkpt>
      <trkpt lat="36.854668" lon="-3.667274">
        <ele>1116.2</ele>
        <time>2022-12-18T11:17:13Z</time>
      </trkpt>
      <trkpt lat="36.854533" lon="-3.667038">
        <ele>1110.5</ele>
        <time>2022-12-18T11:17:45Z</time>
      </trkpt>
      <trkpt lat="36.854361" lon="-3.666799">
        <ele>1107.6</ele>
        <time>2022-12-18T11:18:08Z</time>
      </trkpt>
      <trkpt lat="36.854286" lon="-3.666475">
        <ele>1099.9</ele>
        <time>2022-12-18T11:18:40Z</time>
      </trkpt>
      <trkpt lat="36.853985" lon="-3.666223">
        <ele>1098.9</ele>
        <time>2022-12-18T11:19:25Z</time>
      </trkpt>
      <trkpt lat="36.853794" lon="-3.666039">
        <ele>1100.4</ele>
        <time>2022-12-18T11:19:49Z</time>
      </trkpt>
      <trkpt lat="36.853680" lon="-3.665869">
        <ele>1105.2</ele>
        <time>2022-12-18T11:20:11Z</time>
      </trkpt>
      <trkpt lat="36.853500" lon="-3.665817">
        <ele>1108.5</ele>
        <time>2022-12-18T11:20:34Z</time>
      </trkpt>
      <trkpt lat="36.853323" lon="-3.665719">
        <ele>1111.9</ele>
        <time>2022-12-18T11:20:55Z</time>
      </trkpt>
      <trkpt lat="36.853163" lon="-3.665602">
        <ele>1115.7</ele>
        <time>2022-12-18T11:21:16Z</time>
      </trkpt>
      <trkpt lat="36.852990" lon="-3.665398">
        <ele>1117.2</ele>
        <time>2022-12-18T11:21:40Z</time>
      </trkpt>
      <trkpt lat="36.852914" lon="-3.665161">
        <ele>1119.1</ele>
        <time>2022-12-18T11:22:00Z</time>
      </trkpt>
      <trkpt lat="36.852862" lon="-3.664927">
        <ele>1121.5</ele>
        <time>2022-12-18T11:22:18Z</time>
      </trkpt>
      <trkpt lat="36.852788" lon="-3.664685">
        <ele>1124.4</ele>
        <time>2022-12-18T11:22:37Z</time>
      </trkpt>
      <trkpt lat="36.852676" lon="-3.664491">
        <ele>1125.4</ele>
        <time>2022-12-18T11:22:51Z</time>
      </trkpt>
      <trkpt lat="36.852532" lon="-3.664383">
        <ele>1125.8</ele>
        <time>2022-12-18T11:23:05Z</time>
      </trkpt>
      <trkpt lat="36.852378" lon="-3.664275">
        <ele>1127.3</ele>
        <time>2022-12-18T11:23:20Z</time>
      </trkpt>
      <trkpt lat="36.852212" lon="-3.664159">
        <ele>1127.8</ele>
        <time>2022-12-18T11:23:34Z</time>
      </trkpt>
      <trkpt lat="36.852052" lon="-3.664061">
        <ele>1128.2</ele>
        <time>2022-12-18T11:23:47Z</time>
      </trkpt>
      <trkpt lat="36.851896" lon="-3.663938">
        <ele>1130.6</ele>
        <time>2022-12-18T11:24:01Z</time>
      </trkpt>
      <trkpt lat="36.851718" lon="-3.663946">
        <ele>1130.2</ele>
        <time>2022-12-18T11:24:15Z</time>
      </trkpt>
      <trkpt lat="36.851546" lon="-3.664068">
        <ele>1130.6</ele>
        <time>2022-12-18T11:24:30Z</time>
      </trkpt>
      <trkpt lat="36.851365" lon="-3.664103">
        <ele>1132.6</ele>
        <time>2022-12-18T11:24:44Z</time>
      </trkpt>
      <trkpt lat="36.851186" lon="-3.664095">
        <ele>1133.1</ele>
        <time>2022-12-18T11:24:58Z</time>
      </trkpt>
      <trkpt lat="36.851021" lon="-3.663998">
        <ele>1133.1</ele>
        <time>2022-12-18T11:25:14Z</time>
      </trkpt>
      <trkpt lat="36.850884" lon="-3.663821">
        <ele>1134.0</ele>
        <time>2022-12-18T11:25:28Z</time>
      </trkpt>
      <trkpt lat="36.850754" lon="-3.663650">
        <ele>1134.5</ele>
        <time>2022-12-18T11:25:43Z</time>
      </trkpt>
      <trkpt lat="36.850631" lon="-3.663460">
        <ele>1136.4</ele>
        <time>2022-12-18T11:25:58Z</time>
      </trkpt>
      <trkpt lat="36.850501" lon="-3.663273">
        <ele>1136.9</ele>
        <time>2022-12-18T11:26:13Z</time>
      </trkpt>
      <trkpt lat="36.850362" lon="-3.663102">
        <ele>1138.3</ele>
        <time>2022-12-18T11:26:29Z</time>
      </trkpt>
      <trkpt lat="36.850203" lon="-3.662919">
        <ele>1138.8</ele>
        <time>2022-12-18T11:26:47Z</time>
      </trkpt>
      <trkpt lat="36.850043" lon="-3.662777">
        <ele>1139.3</ele>
        <time>2022-12-18T11:27:02Z</time>
      </trkpt>
      <trkpt lat="36.849876" lon="-3.662644">
        <ele>1139.8</ele>
        <time>2022-12-18T11:27:16Z</time>
      </trkpt>
      <trkpt lat="36.849721" lon="-3.662514">
        <ele>1138.3</ele>
        <time>2022-12-18T11:27:29Z</time>
      </trkpt>
      <trkpt lat="36.849561" lon="-3.662384">
        <ele>1138.8</ele>
        <time>2022-12-18T11:27:43Z</time>
      </trkpt>
      <trkpt lat="36.849397" lon="-3.662258">
        <ele>1138.3</ele>
        <time>2022-12-18T11:27:57Z</time>
      </trkpt>
      <trkpt lat="36.849224" lon="-3.662134">
        <ele>1138.8</ele>
        <time>2022-12-18T11:28:10Z</time>
      </trkpt>
      <trkpt lat="36.849060" lon="-3.662037">
        <ele>1136.9</ele>
        <time>2022-12-18T11:28:23Z</time>
      </trkpt>
      <trkpt lat="36.848876" lon="-3.661961">
        <ele>1135.5</ele>
        <time>2022-12-18T11:28:37Z</time>
      </trkpt>
      <trkpt lat="36.848715" lon="-3.661839">
        <ele>1135.0</ele>
        <time>2022-12-18T11:28:49Z</time>
      </trkpt>
      <trkpt lat="36.848537" lon="-3.661752">
        <ele>1133.5</ele>
        <time>2022-12-18T11:29:02Z</time>
      </trkpt>
      <trkpt lat="36.848349" lon="-3.661727">
        <ele>1132.1</ele>
        <time>2022-12-18T11:29:15Z</time>
      </trkpt>
      <trkpt lat="36.848168" lon="-3.661699">
        <ele>1132.1</ele>
        <time>2022-12-18T11:29:27Z</time>
      </trkpt>
      <trkpt lat="36.847978" lon="-3.661654">
        <ele>1130.6</ele>
        <time>2022-12-18T11:29:40Z</time>
      </trkpt>
      <trkpt lat="36.847797" lon="-3.661604">
        <ele>1130.2</ele>
        <time>2022-12-18T11:29:53Z</time>
      </trkpt>
      <trkpt lat="36.847617" lon="-3.661558">
        <ele>1128.7</ele>
        <time>2022-12-18T11:30:06Z</time>
      </trkpt>
      <trkpt lat="36.847422" lon="-3.661502">
        <ele>1125.8</ele>
        <time>2022-12-18T11:30:20Z</time>
      </trkpt>
      <trkpt lat="36.847233" lon="-3.661480">
        <ele>1124.4</ele>
        <time>2022-12-18T11:30:39Z</time>
      </trkpt>
      <trkpt lat="36.847071" lon="-3.661429">
        <ele>1124.9</ele>
        <time>2022-12-18T11:31:03Z</time>
      </trkpt>
      <trkpt lat="36.846919" lon="-3.661443">
        <ele>1124.9</ele>
        <time>2022-12-18T11:31:25Z</time>
      </trkpt>
      <trkpt lat="36.846740" lon="-3.661512">
        <ele>1124.4</ele>
        <time>2022-12-18T11:31:41Z</time>
      </trkpt>
      <trkpt lat="36.846559" lon="-3.661563">
        <ele>1124.9</ele>
        <time>2022-12-18T11:31:56Z</time>
      </trkpt>
      <trkpt lat="36.846376" lon="-3.661577">
        <ele>1127.3</ele>
        <time>2022-12-18T11:32:12Z</time>
      </trkpt>
      <trkpt lat="36.846181" lon="-3.661589">
        <ele>1129.7</ele>
        <time>2022-12-18T11:32:27Z</time>
      </trkpt>
      <trkpt lat="36.845990" lon="-3.661618">
        <ele>1131.6</ele>
        <time>2022-12-18T11:32:42Z</time>
      </trkpt>
      <trkpt lat="36.845790" lon="-3.661669">
        <ele>1131.1</ele>
        <time>2022-12-18T11:32:57Z</time>
      </trkpt>
      <trkpt lat="36.845595" lon="-3.661670">
        <ele>1132.1</ele>
        <time>2022-12-18T11:33:12Z</time>
      </trkpt>
      <trkpt lat="36.845420" lon="-3.661573">
        <ele>1129.2</ele>
        <time>2022-12-18T11:33:26Z</time>
      </trkpt>
      <trkpt lat="36.845296" lon="-3.661405">
        <ele>1125.4</ele>
        <time>2022-12-18T11:33:40Z</time>
      </trkpt>
      <trkpt lat="36.845181" lon="-3.661226">
        <ele>1122.5</ele>
        <time>2022-12-18T11:33:54Z</time>
      </trkpt>
      <trkpt lat="36.845085" lon="-3.661029">
        <ele>1117.7</ele>
        <time>2022-12-18T11:34:11Z</time>
      </trkpt>
      <trkpt lat="36.845006" lon="-3.660804">
        <ele>1115.3</ele>
        <time>2022-12-18T11:34:25Z</time>
      </trkpt>
      <trkpt lat="36.844916" lon="-3.660585">
        <ele>1113.3</ele>
        <time>2022-12-18T11:34:38Z</time>
      </trkpt>
      <trkpt lat="36.844823" lon="-3.660390">
        <ele>1111.4</ele>
        <time>2022-12-18T11:34:52Z</time>
      </trkpt>
      <trkpt lat="36.844700" lon="-3.660220">
        <ele>1109.0</ele>
        <time>2022-12-18T11:35:06Z</time>
      </trkpt>
      <trkpt lat="36.844590" lon="-3.660041">
        <ele>1107.1</ele>
        <time>2022-12-18T11:35:19Z</time>
      </trkpt>
      <trkpt lat="36.844426" lon="-3.659929">
        <ele>1104.2</ele>
        <time>2022-12-18T11:35:33Z</time>
      </trkpt>
      <trkpt lat="36.844239" lon="-3.659890">
        <ele>1099.9</ele>
        <time>2022-12-18T11:35:49Z</time>
      </trkpt>
      <trkpt lat="36.844068" lon="-3.659855">
        <ele>1097.5</ele>
        <time>2022-12-18T11:36:16Z</time>
      </trkpt>
      <trkpt lat="36.843922" lon="-3.659723">
        <ele>1092.2</ele>
        <time>2022-12-18T11:36:38Z</time>
      </trkpt>
      <trkpt lat="36.843824" lon="-3.659537">
        <ele>1087.9</ele>
        <time>2022-12-18T11:36:53Z</time>
      </trkpt>
      <trkpt lat="36.843713" lon="-3.659366">
        <ele>1081.1</ele>
        <time>2022-12-18T11:37:08Z</time>
      </trkpt>
      <trkpt lat="36.843585" lon="-3.659201">
        <ele>1081.6</ele>
        <time>2022-12-18T11:37:22Z</time>
      </trkpt>
      <trkpt lat="36.843427" lon="-3.659094">
        <ele>1081.6</ele>
        <time>2022-12-18T11:37:40Z</time>
      </trkpt>
      <trkpt lat="36.843278" lon="-3.658974">
        <ele>1086.4</ele>
        <time>2022-12-18T11:37:58Z</time>
      </trkpt>
      <trkpt lat="36.843117" lon="-3.658844">
        <ele>1086.4</ele>
        <time>2022-12-18T11:38:23Z</time>
      </trkpt>
      <trkpt lat="36.842989" lon="-3.658675">
        <ele>1084.0</ele>
        <time>2022-12-18T11:38:41Z</time>
      </trkpt>
      <trkpt lat="36.842859" lon="-3.658496">
        <ele>1079.7</ele>
        <time>2022-12-18T11:38:58Z</time>
      </trkpt>
      <trkpt lat="36.842726" lon="-3.658323">
        <ele>1076.3</ele>
        <time>2022-12-18T11:39:14Z</time>
      </trkpt>
      <trkpt lat="36.842643" lon="-3.658235">
        <ele>1075.9</ele>
        <time>2022-12-18T11:40:03Z</time>
      </trkpt>
      <trkpt lat="36.842520" lon="-3.658074">
        <ele>1075.4</ele>
        <time>2022-12-18T11:41:09Z</time>
      </trkpt>
      <trkpt lat="36.842391" lon="-3.657904">
        <ele>1077.3</ele>
        <time>2022-12-18T11:41:26Z</time>
      </trkpt>
      <trkpt lat="36.842255" lon="-3.657756">
        <ele>1077.8</ele>
        <time>2022-12-18T11:41:45Z</time>
      </trkpt>
      <trkpt lat="36.842121" lon="-3.657619">
        <ele>1082.6</ele>
        <time>2022-12-18T11:42:02Z</time>
      </trkpt>
      <trkpt lat="36.841969" lon="-3.657475">
        <ele>1082.6</ele>
        <time>2022-12-18T11:42:18Z</time>
      </trkpt>
      <trkpt lat="36.841839" lon="-3.657334">
        <ele>1083.1</ele>
        <time>2022-12-18T11:42:38Z</time>
      </trkpt>
      <trkpt lat="36.841715" lon="-3.657181">
        <ele>1086.9</ele>
        <time>2022-12-18T11:42:57Z</time>
      </trkpt>
      <trkpt lat="36.841586" lon="-3.657036">
        <ele>1091.7</ele>
        <time>2022-12-18T11:43:18Z</time>
      </trkpt>
      <trkpt lat="36.841468" lon="-3.656863">
        <ele>1094.1</ele>
        <time>2022-12-18T11:43:35Z</time>
      </trkpt>
      <trkpt lat="36.841310" lon="-3.656724">
        <ele>1094.1</ele>
        <time>2022-12-18T11:43:55Z</time>
      </trkpt>
      <trkpt lat="36.841209" lon="-3.656515">
        <ele>1098.0</ele>
        <time>2022-12-18T11:44:14Z</time>
      </trkpt>
      <trkpt lat="36.841131" lon="-3.656315">
        <ele>1100.8</ele>
        <time>2022-12-18T11:44:32Z</time>
      </trkpt>
      <trkpt lat="36.841047" lon="-3.656121">
        <ele>1101.8</ele>
        <time>2022-12-18T11:44:49Z</time>
      </trkpt>
      <trkpt lat="36.840963" lon="-3.655923">
        <ele>1104.7</ele>
        <time>2022-12-18T11:45:06Z</time>
      </trkpt>
      <trkpt lat="36.840871" lon="-3.655731">
        <ele>1108.1</ele>
        <time>2022-12-18T11:45:28Z</time>
      </trkpt>
      <trkpt lat="36.840748" lon="-3.655578">
        <ele>1114.3</ele>
        <time>2022-12-18T11:45:53Z</time>
      </trkpt>
      <trkpt lat="36.840569" lon="-3.655584">
        <ele>1119.1</ele>
        <time>2022-12-18T11:46:25Z</time>
      </trkpt>
      <trkpt lat="36.840454" lon="-3.655520">
        <ele>1122.0</ele>
        <time>2022-12-18T11:47:57Z</time>
      </trkpt>
      <trkpt lat="36.840281" lon="-3.655443">
        <ele>1119.1</ele>
        <time>2022-12-18T11:48:31Z</time>
      </trkpt>
      <trkpt lat="36.840102" lon="-3.655434">
        <ele>1117.2</ele>
        <time>2022-12-18T11:48:48Z</time>
      </trkpt>
      <trkpt lat="36.839924" lon="-3.655425">
        <ele>1113.3</ele>
        <time>2022-12-18T11:49:02Z</time>
      </trkpt>
      <trkpt lat="36.839733" lon="-3.655424">
        <ele>1114.3</ele>
        <time>2022-12-18T11:49:17Z</time>
      </trkpt>
      <trkpt lat="36.839550" lon="-3.655427">
        <ele>1110.9</ele>
        <time>2022-12-18T11:49:34Z</time>
      </trkpt>
      <trkpt lat="36.839370" lon="-3.655418">
        <ele>1110.9</ele>
        <time>2022-12-18T11:49:49Z</time>
      </trkpt>
      <trkpt lat="36.839185" lon="-3.655403">
        <ele>1108.1</ele>
        <time>2022-12-18T11:50:06Z</time>
      </trkpt>
      <trkpt lat="36.839010" lon="-3.655401">
        <ele>1105.7</ele>
        <time>2022-12-18T11:50:21Z</time>
      </trkpt>
      <trkpt lat="36.838834" lon="-3.655422">
        <ele>1105.7</ele>
        <time>2022-12-18T11:50:34Z</time>
      </trkpt>
      <trkpt lat="36.838669" lon="-3.655455">
        <ele>1106.1</ele>
        <time>2022-12-18T11:50:54Z</time>
      </trkpt>
      <trkpt lat="36.838511" lon="-3.655496">
        <ele>1107.1</ele>
        <time>2022-12-18T11:51:31Z</time>
      </trkpt>
      <trkpt lat="36.838346" lon="-3.655427">
        <ele>1107.6</ele>
        <time>2022-12-18T11:51:39Z</time>
      </trkpt>
      <trkpt lat="36.838169" lon="-3.655326">
        <ele>1104.2</ele>
        <time>2022-12-18T11:51:47Z</time>
      </trkpt>
      <trkpt lat="36.837982" lon="-3.655288">
        <ele>1103.3</ele>
        <time>2022-12-18T11:51:54Z</time>
      </trkpt>
      <trkpt lat="36.837776" lon="-3.655304">
        <ele>1099.9</ele>
        <time>2022-12-18T11:52:02Z</time>
      </trkpt>
      <trkpt lat="36.837596" lon="-3.655320">
        <ele>1098.9</ele>
        <time>2022-12-18T11:52:09Z</time>
      </trkpt>
      <trkpt lat="36.837431" lon="-3.655300">
        <ele>1096.5</ele>
        <time>2022-12-18T11:52:25Z</time>
      </trkpt>
      <trkpt lat="36.837406" lon="-3.655330">
        <ele>1096.0</ele>
        <time>2022-12-18T11:54:07Z</time>
      </trkpt>
      <trkpt lat="36.837332" lon="-3.655548">
        <ele>1095.6</ele>
        <time>2022-12-18T11:54:22Z</time>
      </trkpt>
      <trkpt lat="36.837316" lon="-3.655783">
        <ele>1094.6</ele>
        <time>2022-12-18T11:54:36Z</time>
      </trkpt>
      <trkpt lat="36.837306" lon="-3.656018">
        <ele>1094.1</ele>
        <time>2022-12-18T11:54:50Z</time>
      </trkpt>
      <trkpt lat="36.837338" lon="-3.656261">
        <ele>1093.2</ele>
        <time>2022-12-18T11:55:05Z</time>
      </trkpt>
      <trkpt lat="36.837347" lon="-3.656493">
        <ele>1092.7</ele>
        <time>2022-12-18T11:55:19Z</time>
      </trkpt>
      <trkpt lat="36.837334" lon="-3.656730">
        <ele>1092.2</ele>
        <time>2022-12-18T11:55:33Z</time>
      </trkpt>
      <trkpt lat="36.837243" lon="-3.656925">
        <ele>1091.7</ele>
        <time>2022-12-18T11:55:47Z</time>
      </trkpt>
      <trkpt lat="36.837176" lon="-3.657140">
        <ele>1090.8</ele>
        <time>2022-12-18T11:56:01Z</time>
      </trkpt>
      <trkpt lat="36.837113" lon="-3.657363">
        <ele>1089.8</ele>
        <time>2022-12-18T11:56:15Z</time>
      </trkpt>
      <trkpt lat="36.837044" lon="-3.657580">
        <ele>1088.3</ele>
        <time>2022-12-18T11:56:28Z</time>
      </trkpt>
      <trkpt lat="36.836962" lon="-3.657790">
        <ele>1087.4</ele>
        <time>2022-12-18T11:56:41Z</time>
      </trkpt>
      <trkpt lat="36.836877" lon="-3.658013">
        <ele>1086.4</ele>
        <time>2022-12-18T11:56:55Z</time>
      </trkpt>
      <trkpt lat="36.836842" lon="-3.658242">
        <ele>1085.0</ele>
        <time>2022-12-18T11:57:09Z</time>
      </trkpt>
      <trkpt lat="36.836953" lon="-3.658445">
        <ele>1084.0</ele>
        <time>2022-12-18T11:57:23Z</time>
      </trkpt>
      <trkpt lat="36.837053" lon="-3.658657">
        <ele>1082.1</ele>
        <time>2022-12-18T11:57:37Z</time>
      </trkpt>
      <trkpt lat="36.837092" lon="-3.658883">
        <ele>1081.1</ele>
        <time>2022-12-18T11:57:50Z</time>
      </trkpt>
      <trkpt lat="36.837108" lon="-3.659124">
        <ele>1078.7</ele>
        <time>2022-12-18T11:58:03Z</time>
      </trkpt>
      <trkpt lat="36.837093" lon="-3.659363">
        <ele>1078.3</ele>
        <time>2022-12-18T11:58:16Z</time>
      </trkpt>
      <trkpt lat="36.837065" lon="-3.659606">
        <ele>1077.8</ele>
        <time>2022-12-18T11:58:30Z</time>
      </trkpt>
      <trkpt lat="36.837021" lon="-3.659832">
        <ele>1077.8</ele>
        <time>2022-12-18T11:58:42Z</time>
      </trkpt>
      <trkpt lat="36.836965" lon="-3.660070">
        <ele>1076.8</ele>
        <time>2022-12-18T11:58:55Z</time>
      </trkpt>
      <trkpt lat="36.836853" lon="-3.660259">
        <ele>1075.9</ele>
        <time>2022-12-18T11:59:08Z</time>
      </trkpt>
      <trkpt lat="36.836687" lon="-3.660354">
        <ele>1074.9</ele>
        <time>2022-12-18T11:59:21Z</time>
      </trkpt>
      <trkpt lat="36.836504" lon="-3.660362">
        <ele>1073.9</ele>
        <time>2022-12-18T11:59:34Z</time>
      </trkpt>
      <trkpt lat="36.836318" lon="-3.660388">
        <ele>1073.9</ele>
        <time>2022-12-18T11:59:48Z</time>
      </trkpt>
      <trkpt lat="36.836135" lon="-3.660397">
        <ele>1073.0</ele>
        <time>2022-12-18T12:00:02Z</time>
      </trkpt>
      <trkpt lat="36.835946" lon="-3.660371">
        <ele>1072.5</ele>
        <time>2022-12-18T12:00:16Z</time>
      </trkpt>
      <trkpt lat="36.835759" lon="-3.660329">
        <ele>1070.6</ele>
        <time>2022-12-18T12:00:29Z</time>
      </trkpt>
      <trkpt lat="36.835568" lon="-3.660302">
        <ele>1071.5</ele>
        <time>2022-12-18T12:00:42Z</time>
      </trkpt>
      <trkpt lat="36.835380" lon="-3.660387">
        <ele>1069.6</ele>
        <time>2022-12-18T12:00:56Z</time>
      </trkpt>
      <trkpt lat="36.835252" lon="-3.660569">
        <ele>1069.1</ele>
        <time>2022-12-18T12:01:10Z</time>
      </trkpt>
      <trkpt lat="36.835082" lon="-3.660634">
        <ele>1068.6</ele>
        <time>2022-12-18T12:01:23Z</time>
      </trkpt>
      <trkpt lat="36.834913" lon="-3.660533">
        <ele>1067.2</ele>
        <time>2022-12-18T12:01:36Z</time>
      </trkpt>
      <trkpt lat="36.834754" lon="-3.660421">
        <ele>1067.2</ele>
        <time>2022-12-18T12:01:49Z</time>
      </trkpt>
      <trkpt lat="36.834582" lon="-3.660359">
        <ele>1067.2</ele>
        <time>2022-12-18T12:02:01Z</time>
      </trkpt>
      <trkpt lat="36.834404" lon="-3.660278">
        <ele>1066.2</ele>
        <time>2022-12-18T12:02:14Z</time>
      </trkpt>
      <trkpt lat="36.834228" lon="-3.660190">
        <ele>1065.3</ele>
        <time>2022-12-18T12:02:27Z</time>
      </trkpt>
      <trkpt lat="36.834061" lon="-3.660086">
        <ele>1064.8</ele>
        <time>2022-12-18T12:02:40Z</time>
      </trkpt>
      <trkpt lat="36.833904" lon="-3.659959">
        <ele>1063.4</ele>
        <time>2022-12-18T12:02:53Z</time>
      </trkpt>
      <trkpt lat="36.833812" lon="-3.659756">
        <ele>1061.9</ele>
        <time>2022-12-18T12:03:06Z</time>
      </trkpt>
      <trkpt lat="36.833670" lon="-3.659658">
        <ele>1061.9</ele>
        <time>2022-12-18T12:03:20Z</time>
      </trkpt>
      <trkpt lat="36.833476" lon="-3.659655">
        <ele>1059.5</ele>
        <time>2022-12-18T12:03:33Z</time>
      </trkpt>
      <trkpt lat="36.833289" lon="-3.659610">
        <ele>1059.0</ele>
        <time>2022-12-18T12:03:46Z</time>
      </trkpt>
      <trkpt lat="36.833105" lon="-3.659530">
        <ele>1058.1</ele>
        <time>2022-12-18T12:03:59Z</time>
      </trkpt>
      <trkpt lat="36.832941" lon="-3.659439">
        <ele>1056.6</ele>
        <time>2022-12-18T12:04:11Z</time>
      </trkpt>
      <trkpt lat="36.832796" lon="-3.659297">
        <ele>1055.7</ele>
        <time>2022-12-18T12:04:24Z</time>
      </trkpt>
      <trkpt lat="36.832682" lon="-3.659119">
        <ele>1056.1</ele>
        <time>2022-12-18T12:04:37Z</time>
      </trkpt>
      <trkpt lat="36.832616" lon="-3.658907">
        <ele>1054.2</ele>
        <time>2022-12-18T12:04:50Z</time>
      </trkpt>
      <trkpt lat="36.832526" lon="-3.658712">
        <ele>1053.7</ele>
        <time>2022-12-18T12:05:03Z</time>
      </trkpt>
      <trkpt lat="36.832436" lon="-3.658516">
        <ele>1053.7</ele>
        <time>2022-12-18T12:05:16Z</time>
      </trkpt>
      <trkpt lat="36.832341" lon="-3.658326">
        <ele>1052.3</ele>
        <time>2022-12-18T12:05:29Z</time>
      </trkpt>
      <trkpt lat="36.832242" lon="-3.658128">
        <ele>1049.9</ele>
        <time>2022-12-18T12:05:42Z</time>
      </trkpt>
      <trkpt lat="36.832140" lon="-3.657933">
        <ele>1048.5</ele>
        <time>2022-12-18T12:05:56Z</time>
      </trkpt>
      <trkpt lat="36.832005" lon="-3.657761">
        <ele>1046.5</ele>
        <time>2022-12-18T12:06:10Z</time>
      </trkpt>
      <trkpt lat="36.831872" lon="-3.657611">
        <ele>1046.1</ele>
        <time>2022-12-18T12:06:26Z</time>
      </trkpt>
      <trkpt lat="36.831717" lon="-3.657472">
        <ele>1045.6</ele>
        <time>2022-12-18T12:06:39Z</time>
      </trkpt>
      <trkpt lat="36.831553" lon="-3.657357">
        <ele>1047.5</ele>
        <time>2022-12-18T12:06:52Z</time>
      </trkpt>
      <trkpt lat="36.831398" lon="-3.657221">
        <ele>1046.1</ele>
        <time>2022-12-18T12:07:05Z</time>
      </trkpt>
      <trkpt lat="36.831249" lon="-3.657083">
        <ele>1046.5</ele>
        <time>2022-12-18T12:07:18Z</time>
      </trkpt>
      <trkpt lat="36.831108" lon="-3.656926">
        <ele>1045.1</ele>
        <time>2022-12-18T12:07:32Z</time>
      </trkpt>
      <trkpt lat="36.830962" lon="-3.656792">
        <ele>1042.7</ele>
        <time>2022-12-18T12:07:46Z</time>
      </trkpt>
      <trkpt lat="36.830789" lon="-3.656863">
        <ele>1042.7</ele>
        <time>2022-12-18T12:08:00Z</time>
      </trkpt>
      <trkpt lat="36.830609" lon="-3.656967">
        <ele>1041.7</ele>
        <time>2022-12-18T12:08:14Z</time>
      </trkpt>
      <trkpt lat="36.830420" lon="-3.656920">
        <ele>1043.2</ele>
        <time>2022-12-18T12:08:27Z</time>
      </trkpt>
      <trkpt lat="36.830288" lon="-3.656773">
        <ele>1041.2</ele>
        <time>2022-12-18T12:08:39Z</time>
      </trkpt>
      <trkpt lat="36.830132" lon="-3.656651">
        <ele>1041.2</ele>
        <time>2022-12-18T12:08:52Z</time>
      </trkpt>
      <trkpt lat="36.829979" lon="-3.656543">
        <ele>1040.3</ele>
        <time>2022-12-18T12:09:04Z</time>
      </trkpt>
      <trkpt lat="36.829828" lon="-3.656402">
        <ele>1040.8</ele>
        <time>2022-12-18T12:09:17Z</time>
      </trkpt>
      <trkpt lat="36.829770" lon="-3.656175">
        <ele>1037.9</ele>
        <time>2022-12-18T12:09:30Z</time>
      </trkpt>
      <trkpt lat="36.829870" lon="-3.655948">
        <ele>1034.5</ele>
        <time>2022-12-18T12:09:45Z</time>
      </trkpt>
      <trkpt lat="36.829887" lon="-3.655711">
        <ele>1034.0</ele>
        <time>2022-12-18T12:09:59Z</time>
      </trkpt>
      <trkpt lat="36.829783" lon="-3.655500">
        <ele>1030.2</ele>
        <time>2022-12-18T12:10:14Z</time>
      </trkpt>
      <trkpt lat="36.829616" lon="-3.655358">
        <ele>1029.2</ele>
        <time>2022-12-18T12:10:34Z</time>
      </trkpt>
      <trkpt lat="36.829533" lon="-3.655342">
        <ele>1027.3</ele>
        <time>2022-12-18T12:11:43Z</time>
      </trkpt>
      <trkpt lat="36.829422" lon="-3.655148">
        <ele>1027.8</ele>
        <time>2022-12-18T12:13:05Z</time>
      </trkpt>
      <trkpt lat="36.829459" lon="-3.655208">
        <ele>1027.3</ele>
        <time>2022-12-18T12:17:03Z</time>
      </trkpt>
      <trkpt lat="36.829464" lon="-3.655385">
        <ele>1030.2</ele>
        <time>2022-12-18T12:18:38Z</time>
      </trkpt>
      <trkpt lat="36.829414" lon="-3.655265">
        <ele>1027.8</ele>
        <time>2022-12-18T12:23:28Z</time>
      </trkpt>
      <trkpt lat="36.829485" lon="-3.655369">
        <ele>1026.3</ele>
        <time>2022-12-18T12:29:50Z</time>
      </trkpt>
      <trkpt lat="36.829503" lon="-3.655455">
        <ele>1024.4</ele>
        <time>2022-12-18T12:35:40Z</time>
      </trkpt>
      <trkpt lat="36.829470" lon="-3.655716">
        <ele>1019.1</ele>
        <time>2022-12-18T12:36:08Z</time>
      </trkpt>
      <trkpt lat="36.829275" lon="-3.655833">
        <ele>1013.8</ele>
        <time>2022-12-18T12:36:29Z</time>
      </trkpt>
      <trkpt lat="36.829140" lon="-3.656064">
        <ele>1008.6</ele>
        <time>2022-12-18T12:36:47Z</time>
      </trkpt>
      <trkpt lat="36.828991" lon="-3.656228">
        <ele>1003.3</ele>
        <time>2022-12-18T12:37:02Z</time>
      </trkpt>
      <trkpt lat="36.828823" lon="-3.656370">
        <ele>1000.4</ele>
        <time>2022-12-18T12:37:16Z</time>
      </trkpt>
      <trkpt lat="36.828651" lon="-3.656473">
        <ele>994.6</ele>
        <time>2022-12-18T12:37:39Z</time>
      </trkpt>
      <trkpt lat="36.828517" lon="-3.656638">
        <ele>991.7</ele>
        <time>2022-12-18T12:37:56Z</time>
      </trkpt>
      <trkpt lat="36.828495" lon="-3.656882">
        <ele>989.8</ele>
        <time>2022-12-18T12:38:14Z</time>
      </trkpt>
      <trkpt lat="36.828490" lon="-3.657109">
        <ele>986.0</ele>
        <time>2022-12-18T12:38:36Z</time>
      </trkpt>
      <trkpt lat="36.828484" lon="-3.657339">
        <ele>978.8</ele>
        <time>2022-12-18T12:39:07Z</time>
      </trkpt>
      <trkpt lat="36.828531" lon="-3.657564">
        <ele>973.5</ele>
        <time>2022-12-18T12:39:30Z</time>
      </trkpt>
      <trkpt lat="36.828534" lon="-3.657804">
        <ele>970.6</ele>
        <time>2022-12-18T12:39:49Z</time>
      </trkpt>
      <trkpt lat="36.828417" lon="-3.658005">
        <ele>965.8</ele>
        <time>2022-12-18T12:40:12Z</time>
      </trkpt>
      <trkpt lat="36.828277" lon="-3.658176">
        <ele>959.1</ele>
        <time>2022-12-18T12:40:33Z</time>
      </trkpt>
      <trkpt lat="36.828216" lon="-3.658390">
        <ele>953.8</ele>
        <time>2022-12-18T12:40:53Z</time>
      </trkpt>
      <trkpt lat="36.828171" lon="-3.658618">
        <ele>950.4</ele>
        <time>2022-12-18T12:41:18Z</time>
      </trkpt>
      <trkpt lat="36.828049" lon="-3.658799">
        <ele>947.0</ele>
        <time>2022-12-18T12:41:36Z</time>
      </trkpt>
      <trkpt lat="36.827926" lon="-3.658991">
        <ele>943.7</ele>
        <time>2022-12-18T12:41:52Z</time>
      </trkpt>
      <trkpt lat="36.827833" lon="-3.659177">
        <ele>941.7</ele>
        <time>2022-12-18T12:42:07Z</time>
      </trkpt>
      <trkpt lat="36.827763" lon="-3.659391">
        <ele>935.5</ele>
        <time>2022-12-18T12:42:25Z</time>
      </trkpt>
      <trkpt lat="36.827783" lon="-3.659624">
        <ele>933.6</ele>
        <time>2022-12-18T12:42:45Z</time>
      </trkpt>
      <trkpt lat="36.827773" lon="-3.659797">
        <ele>923.0</ele>
        <time>2022-12-18T12:43:13Z</time>
      </trkpt>
      <trkpt lat="36.827620" lon="-3.659905">
        <ele>918.7</ele>
        <time>2022-12-18T12:43:36Z</time>
      </trkpt>
      <trkpt lat="36.827545" lon="-3.660124">
        <ele>911.9</ele>
        <time>2022-12-18T12:43:57Z</time>
      </trkpt>
      <trkpt lat="36.827516" lon="-3.660302">
        <ele>906.7</ele>
        <time>2022-12-18T12:44:20Z</time>
      </trkpt>
      <trkpt lat="36.827424" lon="-3.660441">
        <ele>898.0</ele>
        <time>2022-12-18T12:44:41Z</time>
      </trkpt>
      <trkpt lat="36.827376" lon="-3.660277">
        <ele>894.6</ele>
        <time>2022-12-18T12:45:00Z</time>
      </trkpt>
      <trkpt lat="36.827312" lon="-3.659887">
        <ele>900.9</ele>
        <time>2022-12-18T12:45:52Z</time>
      </trkpt>
      <trkpt lat="36.827340" lon="-3.659929">
        <ele>902.3</ele>
        <time>2022-12-18T12:48:07Z</time>
      </trkpt>
      <trkpt lat="36.827369" lon="-3.660151">
        <ele>897.0</ele>
        <time>2022-12-18T12:48:19Z</time>
      </trkpt>
      <trkpt lat="36.827260" lon="-3.660381">
        <ele>891.8</ele>
        <time>2022-12-18T12:48:37Z</time>
      </trkpt>
      <trkpt lat="36.827351" lon="-3.660589">
        <ele>888.4</ele>
        <time>2022-12-18T12:48:52Z</time>
      </trkpt>
      <trkpt lat="36.827246" lon="-3.660756">
        <ele>886.5</ele>
        <time>2022-12-18T12:49:09Z</time>
      </trkpt>
      <trkpt lat="36.827195" lon="-3.660978">
        <ele>883.1</ele>
        <time>2022-12-18T12:49:28Z</time>
      </trkpt>
      <trkpt lat="36.827141" lon="-3.661208">
        <ele>879.3</ele>
        <time>2022-12-18T12:49:50Z</time>
      </trkpt>
      <trkpt lat="36.826999" lon="-3.661420">
        <ele>876.4</ele>
        <time>2022-12-18T12:50:11Z</time>
      </trkpt>
      <trkpt lat="36.826955" lon="-3.661680">
        <ele>875.4</ele>
        <time>2022-12-18T12:50:26Z</time>
      </trkpt>
      <trkpt lat="36.826979" lon="-3.661914">
        <ele>876.4</ele>
        <time>2022-12-18T12:50:42Z</time>
      </trkpt>
      <trkpt lat="36.827042" lon="-3.662083">
        <ele>873.5</ele>
        <time>2022-12-18T12:50:58Z</time>
      </trkpt>
      <trkpt lat="36.827208" lon="-3.662198">
        <ele>870.6</ele>
        <time>2022-12-18T12:51:15Z</time>
      </trkpt>
      <trkpt lat="36.827342" lon="-3.662366">
        <ele>864.8</ele>
        <time>2022-12-18T12:51:32Z</time>
      </trkpt>
      <trkpt lat="36.827225" lon="-3.662547">
        <ele>863.4</ele>
        <time>2022-12-18T12:51:51Z</time>
      </trkpt>
      <trkpt lat="36.827096" lon="-3.662732">
        <ele>857.2</ele>
        <time>2022-12-18T12:52:08Z</time>
      </trkpt>
      <trkpt lat="36.827283" lon="-3.662839">
        <ele>852.3</ele>
        <time>2022-12-18T12:52:24Z</time>
      </trkpt>
      <trkpt lat="36.827487" lon="-3.662954">
        <ele>844.7</ele>
        <time>2022-12-18T12:52:40Z</time>
      </trkpt>
      <trkpt lat="36.827649" lon="-3.663090">
        <ele>845.6</ele>
        <time>2022-12-18T12:53:28Z</time>
      </trkpt>
      <trkpt lat="36.827726" lon="-3.663308">
        <ele>845.6</ele>
        <time>2022-12-18T12:53:42Z</time>
      </trkpt>
      <trkpt lat="36.827815" lon="-3.663519">
        <ele>846.6</ele>
        <time>2022-12-18T12:53:56Z</time>
      </trkpt>
      <trkpt lat="36.827925" lon="-3.663717">
        <ele>849.5</ele>
        <time>2022-12-18T12:54:15Z</time>
      </trkpt>
      <trkpt lat="36.828064" lon="-3.663875">
        <ele>854.7</ele>
        <time>2022-12-18T12:54:36Z</time>
      </trkpt>
      <trkpt lat="36.828182" lon="-3.664068">
        <ele>856.2</ele>
        <time>2022-12-18T12:54:54Z</time>
      </trkpt>
      <trkpt lat="36.828257" lon="-3.664265">
        <ele>857.6</ele>
        <time>2022-12-18T12:55:15Z</time>
      </trkpt>
      <trkpt lat="36.828331" lon="-3.664449">
        <ele>852.8</ele>
        <time>2022-12-18T12:55:36Z</time>
      </trkpt>
      <trkpt lat="36.828357" lon="-3.664670">
        <ele>849.0</ele>
        <time>2022-12-18T12:55:55Z</time>
      </trkpt>
      <trkpt lat="36.828525" lon="-3.664743">
        <ele>846.1</ele>
        <time>2022-12-18T12:56:11Z</time>
      </trkpt>
      <trkpt lat="36.828712" lon="-3.664841">
        <ele>846.6</ele>
        <time>2022-12-18T12:56:27Z</time>
      </trkpt>
      <trkpt lat="36.828819" lon="-3.665033">
        <ele>843.2</ele>
        <time>2022-12-18T12:56:42Z</time>
      </trkpt>
      <trkpt lat="36.828933" lon="-3.665224">
        <ele>841.8</ele>
        <time>2022-12-18T12:56:59Z</time>
      </trkpt>
      <trkpt lat="36.829082" lon="-3.665373">
        <ele>839.8</ele>
        <time>2022-12-18T12:57:13Z</time>
      </trkpt>
      <trkpt lat="36.829237" lon="-3.665469">
        <ele>842.3</ele>
        <time>2022-12-18T12:57:33Z</time>
      </trkpt>
      <trkpt lat="36.829442" lon="-3.665521">
        <ele>840.8</ele>
        <time>2022-12-18T12:57:49Z</time>
      </trkpt>
      <trkpt lat="36.829622" lon="-3.665621">
        <ele>841.3</ele>
        <time>2022-12-18T12:58:09Z</time>
      </trkpt>
      <trkpt lat="36.829770" lon="-3.665758">
        <ele>844.7</ele>
        <time>2022-12-18T12:58:28Z</time>
      </trkpt>
      <trkpt lat="36.829931" lon="-3.665901">
        <ele>845.6</ele>
        <time>2022-12-18T12:58:46Z</time>
      </trkpt>
      <trkpt lat="36.830054" lon="-3.666063">
        <ele>844.2</ele>
        <time>2022-12-18T12:59:03Z</time>
      </trkpt>
      <trkpt lat="36.830221" lon="-3.666093">
        <ele>840.8</ele>
        <time>2022-12-18T12:59:23Z</time>
      </trkpt>
      <trkpt lat="36.830399" lon="-3.666171">
        <ele>843.2</ele>
        <time>2022-12-18T12:59:41Z</time>
      </trkpt>
      <trkpt lat="36.830571" lon="-3.666263">
        <ele>842.3</ele>
        <time>2022-12-18T12:59:58Z</time>
      </trkpt>
      <trkpt lat="36.830776" lon="-3.666252">
        <ele>842.3</ele>
        <time>2022-12-18T13:00:17Z</time>
      </trkpt>
      <trkpt lat="36.830962" lon="-3.666177">
        <ele>844.2</ele>
        <time>2022-12-18T13:00:35Z</time>
      </trkpt>
      <trkpt lat="36.831160" lon="-3.666177">
        <ele>844.7</ele>
        <time>2022-12-18T13:00:55Z</time>
      </trkpt>
      <trkpt lat="36.831361" lon="-3.666138">
        <ele>847.5</ele>
        <time>2022-12-18T13:01:14Z</time>
      </trkpt>
      <trkpt lat="36.831537" lon="-3.666096">
        <ele>851.9</ele>
        <time>2022-12-18T13:01:40Z</time>
      </trkpt>
      <trkpt lat="36.831737" lon="-3.666164">
        <ele>853.3</ele>
        <time>2022-12-18T13:02:03Z</time>
      </trkpt>
      <trkpt lat="36.831928" lon="-3.666210">
        <ele>852.3</ele>
        <time>2022-12-18T13:02:22Z</time>
      </trkpt>
      <trkpt lat="36.832123" lon="-3.666205">
        <ele>852.3</ele>
        <time>2022-12-18T13:02:39Z</time>
      </trkpt>
      <trkpt lat="36.832315" lon="-3.666135">
        <ele>852.8</ele>
        <time>2022-12-18T13:02:55Z</time>
      </trkpt>
      <trkpt lat="36.832507" lon="-3.666117">
        <ele>853.3</ele>
        <time>2022-12-18T13:03:12Z</time>
      </trkpt>
      <trkpt lat="36.832660" lon="-3.666204">
        <ele>851.4</ele>
        <time>2022-12-18T13:03:27Z</time>
      </trkpt>
      <trkpt lat="36.832757" lon="-3.666398">
        <ele>849.0</ele>
        <time>2022-12-18T13:03:42Z</time>
      </trkpt>
      <trkpt lat="36.832966" lon="-3.666426">
        <ele>846.6</ele>
        <time>2022-12-18T13:03:59Z</time>
      </trkpt>
      <trkpt lat="36.833188" lon="-3.666441">
        <ele>845.1</ele>
        <time>2022-12-18T13:04:18Z</time>
      </trkpt>
      <trkpt lat="36.833398" lon="-3.666457">
        <ele>840.3</ele>
        <time>2022-12-18T13:04:38Z</time>
      </trkpt>
      <trkpt lat="36.833604" lon="-3.666482">
        <ele>837.0</ele>
        <time>2022-12-18T13:05:12Z</time>
      </trkpt>
      <trkpt lat="36.833745" lon="-3.666717">
        <ele>830.7</ele>
        <time>2022-12-18T13:05:35Z</time>
      </trkpt>
      <trkpt lat="36.833927" lon="-3.666906">
        <ele>824.9</ele>
        <time>2022-12-18T13:06:08Z</time>
      </trkpt>
      <trkpt lat="36.834149" lon="-3.667032">
        <ele>828.3</ele>
        <time>2022-12-18T13:06:29Z</time>
      </trkpt>
      <trkpt lat="36.834311" lon="-3.667165">
        <ele>826.4</ele>
        <time>2022-12-18T13:06:46Z</time>
      </trkpt>
      <trkpt lat="36.834508" lon="-3.667303">
        <ele>824.9</ele>
        <time>2022-12-18T13:07:06Z</time>
      </trkpt>
      <trkpt lat="36.834639" lon="-3.667499">
        <ele>824.0</ele>
        <time>2022-12-18T13:07:28Z</time>
      </trkpt>
      <trkpt lat="36.834821" lon="-3.667617">
        <ele>826.4</ele>
        <time>2022-12-18T13:07:47Z</time>
      </trkpt>
      <trkpt lat="36.834997" lon="-3.667719">
        <ele>824.5</ele>
        <time>2022-12-18T13:08:15Z</time>
      </trkpt>
      <trkpt lat="36.835182" lon="-3.667856">
        <ele>817.7</ele>
        <time>2022-12-18T13:08:49Z</time>
      </trkpt>
      <trkpt lat="36.835295" lon="-3.668016">
        <ele>817.7</ele>
        <time>2022-12-18T13:10:15Z</time>
      </trkpt>
      <trkpt lat="36.835292" lon="-3.668259">
        <ele>811.5</ele>
        <time>2022-12-18T13:10:38Z</time>
      </trkpt>
      <trkpt lat="36.835448" lon="-3.668427">
        <ele>808.6</ele>
        <time>2022-12-18T13:11:02Z</time>
      </trkpt>
      <trkpt lat="36.835495" lon="-3.668671">
        <ele>803.3</ele>
        <time>2022-12-18T13:11:26Z</time>
      </trkpt>
      <trkpt lat="36.835466" lon="-3.668827">
        <ele>800.0</ele>
        <time>2022-12-18T13:11:44Z</time>
      </trkpt>
      <trkpt lat="36.835447" lon="-3.669051">
        <ele>794.2</ele>
        <time>2022-12-18T13:12:04Z</time>
      </trkpt>
      <trkpt lat="36.835439" lon="-3.669304">
        <ele>792.7</ele>
        <time>2022-12-18T13:12:24Z</time>
      </trkpt>
      <trkpt lat="36.835559" lon="-3.669470">
        <ele>790.3</ele>
        <time>2022-12-18T13:12:52Z</time>
      </trkpt>
      <trkpt lat="36.835722" lon="-3.669576">
        <ele>784.1</ele>
        <time>2022-12-18T13:13:15Z</time>
      </trkpt>
      <trkpt lat="36.835869" lon="-3.669691">
        <ele>780.2</ele>
        <time>2022-12-18T13:13:41Z</time>
      </trkpt>
      <trkpt lat="36.835806" lon="-3.669810">
        <ele>774.0</ele>
        <time>2022-12-18T13:14:03Z</time>
      </trkpt>
      <trkpt lat="36.836000" lon="-3.669909">
        <ele>770.2</ele>
        <time>2022-12-18T13:14:21Z</time>
      </trkpt>
      <trkpt lat="36.836171" lon="-3.669986">
        <ele>766.8</ele>
        <time>2022-12-18T13:14:41Z</time>
      </trkpt>
      <trkpt lat="36.836239" lon="-3.670183">
        <ele>767.3</ele>
        <time>2022-12-18T13:15:01Z</time>
      </trkpt>
      <trkpt lat="36.836363" lon="-3.670255">
        <ele>761.5</ele>
        <time>2022-12-18T13:15:22Z</time>
      </trkpt>
      <trkpt lat="36.836264" lon="-3.670486">
        <ele>758.1</ele>
        <time>2022-12-18T13:15:41Z</time>
      </trkpt>
      <trkpt lat="36.836290" lon="-3.670601">
        <ele>753.3</ele>
        <time>2022-12-18T13:16:03Z</time>
      </trkpt>
      <trkpt lat="36.836254" lon="-3.670850">
        <ele>748.5</ele>
        <time>2022-12-18T13:16:23Z</time>
      </trkpt>
      <trkpt lat="36.836183" lon="-3.671072">
        <ele>742.8</ele>
        <time>2022-12-18T13:16:44Z</time>
      </trkpt>
      <trkpt lat="36.836091" lon="-3.671285">
        <ele>737.9</ele>
        <time>2022-12-18T13:17:00Z</time>
      </trkpt>
      <trkpt lat="36.835998" lon="-3.671527">
        <ele>733.6</ele>
        <time>2022-12-18T13:17:18Z</time>
      </trkpt>
      <trkpt lat="36.836056" lon="-3.671587">
        <ele>728.3</ele>
        <time>2022-12-18T13:17:35Z</time>
      </trkpt>
      <trkpt lat="36.836071" lon="-3.671767">
        <ele>723.5</ele>
        <time>2022-12-18T13:17:56Z</time>
      </trkpt>
      <trkpt lat="36.836011" lon="-3.672024">
        <ele>717.3</ele>
        <time>2022-12-18T13:18:15Z</time>
      </trkpt>
      <trkpt lat="36.835873" lon="-3.672219">
        <ele>710.6</ele>
        <time>2022-12-18T13:18:30Z</time>
      </trkpt>
      <trkpt lat="36.835756" lon="-3.672392">
        <ele>706.2</ele>
        <time>2022-12-18T13:18:46Z</time>
      </trkpt>
      <trkpt lat="36.835928" lon="-3.672416">
        <ele>702.4</ele>
        <time>2022-12-18T13:19:35Z</time>
      </trkpt>
      <trkpt lat="36.836072" lon="-3.672457">
        <ele>699.5</ele>
        <time>2022-12-18T13:19:55Z</time>
      </trkpt>
      <trkpt lat="36.835927" lon="-3.672633">
        <ele>694.7</ele>
        <time>2022-12-18T13:20:12Z</time>
      </trkpt>
      <trkpt lat="36.835770" lon="-3.672770">
        <ele>691.8</ele>
        <time>2022-12-18T13:20:37Z</time>
      </trkpt>
      <trkpt lat="36.835597" lon="-3.672854">
        <ele>688.4</ele>
        <time>2022-12-18T13:20:56Z</time>
      </trkpt>
      <trkpt lat="36.835446" lon="-3.672983">
        <ele>683.6</ele>
        <time>2022-12-18T13:21:23Z</time>
      </trkpt>
      <trkpt lat="36.835287" lon="-3.673112">
        <ele>681.2</ele>
        <time>2022-12-18T13:21:42Z</time>
      </trkpt>
      <trkpt lat="36.835126" lon="-3.673253">
        <ele>678.8</ele>
        <time>2022-12-18T13:22:01Z</time>
      </trkpt>
      <trkpt lat="36.834960" lon="-3.673414">
        <ele>676.4</ele>
        <time>2022-12-18T13:22:18Z</time>
      </trkpt>
      <trkpt lat="36.834870" lon="-3.673395">
        <ele>678.8</ele>
        <time>2022-12-18T13:22:41Z</time>
      </trkpt>
    </trkseg>
  </trk>
</gpx>
